Time,TemperatureF,DewpointF,PressureIn,WindDirection,WindDirectionDegrees,WindSpeedMPH,WindSpeedGustMPH,Humidity,HourlyPrecipIn,Conditions,Clouds,dailyrainin,SoftwareType,DateUTC
2013-02-06 00:01:00,36.5,27.6,30.04,SE,135,0.0,0.0,70,0.00,,,0.00,WUHU215HW,2013-02-06 06:01:00,
2013-02-06 00:06:00,36.5,27.6,30.04,SE,135,0.0,0.0,70,0.00,,,0.00,WUHU215HW,2013-02-06 06:06:00,
2013-02-06 00:07:00,36.3,27.6,30.04,SE,135,0.0,0.0,70,0.00,,,0.00,WUHU215HW,2013-02-06 06:07:00,
2013-02-06 00:11:00,36.3,27.5,30.04,SE,135,0.0,0.0,70,0.00,,,0.00,WUHU215HW,2013-02-06 06:11:00,
2013-02-06 00:14:00,36.1,27.3,30.04,SE,135,0.0,0.0,70,0.00,,,0.00,WUHU215HW,2013-02-06 06:14:00,
2013-02-06 00:16:00,35.9,27.3,30.04,SSE,158,0.0,0.0,70,0.00,,,0.00,WUHU215HW,2013-02-06 06:16:00,
2013-02-06 00:19:00,35.9,27.3,30.04,SSE,158,0.0,0.0,71,0.00,,,0.00,WUHU215HW,2013-02-06 06:19:00,
2013-02-06 00:21:00,35.7,27.2,30.04,SSE,158,0.0,0.0,71,0.00,,,0.00,WUHU215HW,2013-02-06 06:21:00,
2013-02-06 00:23:00,35.7,27.2,30.04,SSE,158,0.0,0.0,71,0.00,,,0.00,WUHU215HW,2013-02-06 06:23:00,
2013-02-06 00:25:00,35.7,27.2,30.04,SSE,158,0.0,0.0,71,0.00,,,0.00,WUHU215HW,2013-02-06 06:25:00,
2013-02-06 00:29:00,35.7,27.2,30.04,SE,135,0.0,0.0,71,0.00,,,0.00,WUHU215HW,2013-02-06 06:29:00,
2013-02-06 00:30:00,35.7,27.2,30.04,SE,135,0.0,0.0,71,0.00,,,0.00,WUHU215HW,2013-02-06 06:30:00,
2013-02-06 00:31:00,35.6,27.2,30.04,SSE,158,0.0,0.0,71,0.00,,,0.00,WUHU215HW,2013-02-06 06:31:00,
2013-02-06 00:32:00,35.6,27.2,30.04,SSE,158,0.0,0.0,71,0.00,,,0.00,WUHU215HW,2013-02-06 06:32:00,
2013-02-06 00:36:00,35.4,27.2,30.04,SE,135,0.0,0.0,72,0.00,,,0.00,WUHU215HW,2013-02-06 06:36:00,
2013-02-06 00:37:00,35.4,27.2,30.04,SE,135,0.0,0.0,72,0.00,,,0.00,WUHU215HW,2013-02-06 06:37:00,
2013-02-06 00:39:00,35.4,27.2,30.04,SE,135,0.0,0.0,72,0.00,,,0.00,WUHU215HW,2013-02-06 06:39:00,
2013-02-06 00:40:00,35.4,27.2,30.04,SE,135,0.0,0.0,72,0.00,,,0.00,WUHU215HW,2013-02-06 06:40:00,
2013-02-06 00:42:00,35.4,27.2,30.04,SE,135,0.0,0.0,72,0.00,,,0.00,WUHU215HW,2013-02-06 06:42:00,
2013-02-06 00:43:00,35.4,27.2,30.04,SE,135,0.0,0.0,72,0.00,,,0.00,WUHU215HW,2013-02-06 06:43:00,
2013-02-06 00:48:00,35.2,27.0,30.04,SSE,158,0.0,0.0,72,0.00,,,0.00,WUHU215HW,2013-02-06 06:48:00,
2013-02-06 00:49:00,35.2,27.0,30.04,SSE,158,0.0,0.0,72,0.00,,,0.00,WUHU215HW,2013-02-06 06:49:00,
2013-02-06 00:52:00,35.2,27.0,30.04,SSE,158,0.0,0.0,72,0.00,,,0.00,WUHU215HW,2013-02-06 06:52:00,
2013-02-06 00:55:00,35.2,27.0,30.04,SSE,158,0.0,0.0,72,0.00,,,0.00,WUHU215HW,2013-02-06 06:55:00,
2013-02-06 00:56:00,35.2,27.0,30.04,SSE,158,0.0,0.0,72,0.00,,,0.00,WUHU215HW,2013-02-06 06:56:00,
2013-02-06 00:57:00,35.2,27.0,30.04,SSE,158,0.0,0.0,72,0.00,,,0.00,WUHU215HW,2013-02-06 06:57:00,
2013-02-06 00:58:00,35.2,27.0,30.04,SSE,158,0.0,0.0,72,0.00,,,0.00,WUHU215HW,2013-02-06 06:58:00,
2013-02-06 01:03:00,34.8,27.0,30.04,SE,135,0.0,0.0,73,0.00,,,0.00,WUHU215HW,2013-02-06 07:03:00,
2013-02-06 01:04:00,34.8,27.0,30.04,SE,135,0.0,0.0,73,0.00,,,0.00,WUHU215HW,2013-02-06 07:04:00,
2013-02-06 01:08:00,34.8,27.0,30.04,SSE,158,0.0,0.0,73,0.00,,,0.00,WUHU215HW,2013-02-06 07:08:00,
2013-02-06 01:09:00,34.8,27.0,30.04,South,180,0.0,0.0,73,0.00,,,0.00,WUHU215HW,2013-02-06 07:09:00,
2013-02-06 01:10:00,34.8,27.0,30.04,South,180,0.0,0.0,73,0.00,,,0.00,WUHU215HW,2013-02-06 07:10:00,
2013-02-06 01:14:00,34.8,27.0,30.04,SE,135,0.0,0.0,73,0.00,,,0.00,WUHU215HW,2013-02-06 07:14:00,
2013-02-06 01:15:00,34.8,27.0,30.04,SE,135,0.0,0.0,73,0.00,,,0.00,WUHU215HW,2013-02-06 07:15:00,
2013-02-06 01:16:00,34.8,27.0,30.04,SE,135,0.0,0.0,73,0.00,,,0.00,WUHU215HW,2013-02-06 07:16:00,
2013-02-06 01:17:00,34.8,27.0,30.04,SE,135,0.0,0.0,73,0.00,,,0.00,WUHU215HW,2013-02-06 07:17:00,
2013-02-06 01:20:00,34.8,27.0,30.04,SSE,158,0.0,0.0,73,0.00,,,0.00,WUHU215HW,2013-02-06 07:20:00,
2013-02-06 01:22:00,34.8,27.0,30.04,SE,135,0.0,0.0,73,0.00,,,0.00,WUHU215HW,2013-02-06 07:22:00,
2013-02-06 01:25:00,34.8,27.0,30.04,SE,135,0.0,0.0,73,0.00,,,0.00,WUHU215HW,2013-02-06 07:25:00,
2013-02-06 01:28:00,35.0,27.2,30.04,SSE,158,0.0,0.0,73,0.00,,,0.00,WUHU215HW,2013-02-06 07:28:00,
2013-02-06 01:31:00,35.2,27.3,30.04,SE,135,0.0,0.0,74,0.00,,,0.00,WUHU215HW,2013-02-06 07:31:00,
2013-02-06 01:33:00,35.2,27.3,30.04,SSE,158,0.0,0.0,74,0.00,,,0.00,WUHU215HW,2013-02-06 07:33:00,
2013-02-06 01:38:00,35.4,27.8,30.04,SSE,158,0.0,0.0,74,0.00,,,0.00,WUHU215HW,2013-02-06 07:38:00,
2013-02-06 01:40:00,35.7,28.2,30.04,SSE,158,0.0,0.0,74,0.00,,,0.00,WUHU215HW,2013-02-06 07:40:00,
2013-02-06 01:43:00,35.7,28.2,30.04,SSE,158,0.0,0.0,74,0.00,,,0.00,WUHU215HW,2013-02-06 07:43:00,
2013-02-06 01:45:00,35.7,28.2,30.04,SSE,158,0.0,0.0,74,0.00,,,0.00,WUHU215HW,2013-02-06 07:45:00,
2013-02-06 01:48:00,35.9,28.2,30.04,SSE,158,0.0,0.0,73,0.00,,,0.00,WUHU215HW,2013-02-06 07:48:00,
2013-02-06 01:50:00,36.1,28.2,30.04,SSE,158,0.0,0.0,73,0.00,,,0.00,WUHU215HW,2013-02-06 07:50:00,
2013-02-06 01:52:00,36.1,28.2,30.04,SSE,158,0.0,0.0,73,0.00,,,0.00,WUHU215HW,2013-02-06 07:52:00,
2013-02-06 01:53:00,36.1,28.2,30.04,SSE,158,0.0,0.0,73,0.00,,,0.00,WUHU215HW,2013-02-06 07:53:00,
2013-02-06 01:56:00,36.1,28.2,30.04,SSE,158,0.0,0.0,73,0.00,,,0.00,WUHU215HW,2013-02-06 07:56:00,
2013-02-06 01:57:00,36.1,28.2,30.04,SSE,158,0.0,0.0,73,0.00,,,0.00,WUHU215HW,2013-02-06 07:57:00,
2013-02-06 01:59:00,36.1,28.2,30.04,SSE,158,0.0,0.0,73,0.00,,,0.00,WUHU215HW,2013-02-06 07:59:00,
2013-02-06 02:02:00,36.1,28.2,30.04,SSE,158,0.0,0.0,73,0.00,,,0.00,WUHU215HW,2013-02-06 08:02:00,
2013-02-06 02:03:00,36.1,28.2,30.04,SSE,158,0.0,0.0,73,0.00,,,0.00,WUHU215HW,2013-02-06 08:03:00,
2013-02-06 02:04:00,36.1,28.2,30.04,SSE,158,0.0,0.0,73,0.00,,,0.00,WUHU215HW,2013-02-06 08:04:00,
2013-02-06 02:07:00,35.9,28.2,30.04,SSE,158,0.0,0.0,73,0.00,,,0.00,WUHU215HW,2013-02-06 08:07:00,
2013-02-06 02:09:00,35.9,28.1,30.04,SSE,158,0.0,0.0,73,0.00,,,0.00,WUHU215HW,2013-02-06 08:09:00,
2013-02-06 02:12:00,35.9,28.1,30.04,SE,135,0.0,0.0,73,0.00,,,0.00,WUHU215HW,2013-02-06 08:12:00,
2013-02-06 02:14:00,35.9,28.1,30.04,SE,135,0.0,0.0,73,0.00,,,0.00,WUHU215HW,2013-02-06 08:14:00,
2013-02-06 02:16:00,35.7,27.9,30.04,South,180,0.0,0.0,73,0.00,,,0.00,WUHU215HW,2013-02-06 08:16:00,
2013-02-06 02:17:00,35.7,27.9,30.04,South,180,0.0,0.0,73,0.00,,,0.00,WUHU215HW,2013-02-06 08:17:00,
2013-02-06 02:20:00,35.7,27.9,30.04,SSE,158,0.0,0.0,73,0.00,,,0.00,WUHU215HW,2013-02-06 08:20:00,
2013-02-06 02:22:00,35.7,27.9,30.04,SSE,158,0.0,0.0,73,0.00,,,0.00,WUHU215HW,2013-02-06 08:22:00,
2013-02-06 02:25:00,35.4,27.5,30.04,SE,135,0.0,0.0,73,0.00,,,0.00,WUHU215HW,2013-02-06 08:25:00,
2013-02-06 02:27:00,35.4,27.5,30.04,SE,135,0.0,0.0,73,0.00,,,0.00,WUHU215HW,2013-02-06 08:27:00,
2013-02-06 02:28:00,35.4,27.5,30.04,SE,135,0.0,0.0,73,0.00,,,0.00,WUHU215HW,2013-02-06 08:28:00,
2013-02-06 02:30:00,35.4,27.5,30.04,SSE,158,0.0,0.0,73,0.00,,,0.00,WUHU215HW,2013-02-06 08:30:00,
2013-02-06 02:33:00,35.2,27.3,30.04,SSE,158,0.0,0.0,73,0.00,,,0.00,WUHU215HW,2013-02-06 08:33:00,
2013-02-06 02:34:00,35.2,27.3,30.04,SSE,158,0.0,0.0,73,0.00,,,0.00,WUHU215HW,2013-02-06 08:34:00,
2013-02-06 02:37:00,35.2,27.3,30.04,SSE,158,0.0,0.0,73,0.00,,,0.00,WUHU215HW,2013-02-06 08:37:00,
2013-02-06 02:39:00,35.2,27.3,30.04,SSE,158,0.0,0.0,73,0.00,,,0.00,WUHU215HW,2013-02-06 08:39:00,
2013-02-06 02:40:00,35.2,27.7,30.04,SSE,158,0.0,0.0,74,0.00,,,0.00,WUHU215HW,2013-02-06 08:40:00,
2013-02-06 02:41:00,35.2,27.7,30.04,SSE,158,0.0,0.0,74,0.00,,,0.00,WUHU215HW,2013-02-06 08:41:00,
2013-02-06 02:46:00,35.2,27.7,30.04,SE,135,0.0,0.0,74,0.00,,,0.00,WUHU215HW,2013-02-06 08:46:00,
2013-02-06 02:48:00,35.4,27.8,30.04,SSE,158,0.0,0.0,74,0.00,,,0.00,WUHU215HW,2013-02-06 08:48:00,
2013-02-06 02:49:00,35.4,27.8,30.04,SSE,158,0.0,0.0,74,0.00,,,0.00,WUHU215HW,2013-02-06 08:49:00,
2013-02-06 02:51:00,35.4,27.8,30.04,SSE,158,0.0,0.0,74,0.00,,,0.00,WUHU215HW,2013-02-06 08:51:00,
2013-02-06 02:56:00,35.4,27.8,30.04,SSE,158,0.0,0.0,74,0.00,,,0.00,WUHU215HW,2013-02-06 08:56:00,
2013-02-06 02:57:00,35.4,27.8,30.04,SE,135,0.0,0.0,74,0.00,,,0.00,WUHU215HW,2013-02-06 08:57:00,
2013-02-06 02:58:00,35.4,27.8,30.04,SE,135,0.0,0.0,74,0.00,,,0.00,WUHU215HW,2013-02-06 08:58:00,
2013-02-06 03:00:00,35.4,27.8,30.04,SE,135,0.0,0.0,74,0.00,,,0.00,WUHU215HW,2013-02-06 09:00:00,
2013-02-06 03:02:00,35.4,27.5,30.04,SSE,158,0.0,0.0,73,0.00,,,0.00,WUHU215HW,2013-02-06 09:02:00,
2013-02-06 03:04:00,35.4,27.5,30.04,SSE,158,0.0,0.0,73,0.00,,,0.00,WUHU215HW,2013-02-06 09:04:00,
2013-02-06 03:07:00,35.4,27.5,30.04,SSE,158,0.0,0.0,73,0.00,,,0.00,WUHU215HW,2013-02-06 09:07:00,
2013-02-06 03:11:00,35.4,27.5,30.04,SSE,158,0.0,0.0,73,0.00,,,0.00,WUHU215HW,2013-02-06 09:11:00,
2013-02-06 03:13:00,35.4,27.5,30.04,SSE,158,0.0,0.0,73,0.00,,,0.00,WUHU215HW,2013-02-06 09:13:00,
2013-02-06 03:15:00,35.4,27.5,30.04,SSE,158,0.0,0.0,73,0.00,,,0.00,WUHU215HW,2013-02-06 09:15:00,
2013-02-06 03:17:00,35.4,27.5,30.04,SSE,158,0.0,0.0,73,0.00,,,0.00,WUHU215HW,2013-02-06 09:17:00,
2013-02-06 03:18:00,35.4,27.5,30.04,SE,135,0.0,0.0,73,0.00,,,0.00,WUHU215HW,2013-02-06 09:18:00,
2013-02-06 03:21:00,35.4,27.5,30.04,SSE,158,0.0,0.0,73,0.00,,,0.00,WUHU215HW,2013-02-06 09:21:00,
2013-02-06 03:23:00,35.4,27.5,30.04,SSE,158,0.0,0.0,73,0.00,,,0.00,WUHU215HW,2013-02-06 09:23:00,
2013-02-06 03:24:00,35.6,27.5,30.04,SSE,158,0.0,0.0,74,0.00,,,0.00,WUHU215HW,2013-02-06 09:24:00,
2013-02-06 03:27:00,35.7,28.2,30.04,SSE,158,0.0,0.0,74,0.00,,,0.00,WUHU215HW,2013-02-06 09:27:00,
2013-02-06 03:28:00,35.7,28.2,30.04,SSE,158,0.0,0.0,74,0.00,,,0.00,WUHU215HW,2013-02-06 09:28:00,
2013-02-06 03:29:00,35.7,28.2,30.04,SE,135,0.0,0.0,74,0.00,,,0.00,WUHU215HW,2013-02-06 09:29:00,
2013-02-06 03:32:00,35.7,28.2,30.04,SSE,158,0.0,0.0,74,0.00,,,0.00,WUHU215HW,2013-02-06 09:32:00,
2013-02-06 03:33:00,35.7,28.2,30.04,SSE,158,0.0,0.0,74,0.00,,,0.00,WUHU215HW,2013-02-06 09:33:00,
2013-02-06 03:34:00,35.7,28.2,30.04,SSE,158,0.0,0.0,74,0.00,,,0.00,WUHU215HW,2013-02-06 09:34:00,
2013-02-06 03:37:00,35.9,28.4,30.04,SSE,158,0.0,0.0,74,0.00,,,0.00,WUHU215HW,2013-02-06 09:37:00,
2013-02-06 03:39:00,35.9,28.4,30.04,SSE,158,0.0,0.0,74,0.00,,,0.00,WUHU215HW,2013-02-06 09:39:00,
2013-02-06 03:41:00,36.1,28.4,30.04,SSE,158,0.0,0.0,74,0.00,,,0.00,WUHU215HW,2013-02-06 09:41:00,
2013-02-06 03:42:00,36.1,28.4,30.04,SSE,158,0.0,0.0,74,0.00,,,0.00,WUHU215HW,2013-02-06 09:42:00,
2013-02-06 03:46:00,36.1,28.6,30.04,SSE,158,0.0,0.0,74,0.00,,,0.00,WUHU215HW,2013-02-06 09:46:00,
2013-02-06 03:47:00,36.1,28.6,30.04,SSE,158,0.0,0.0,74,0.00,,,0.00,WUHU215HW,2013-02-06 09:47:00,
2013-02-06 03:48:00,36.1,28.6,30.04,SSE,158,0.0,0.0,74,0.00,,,0.00,WUHU215HW,2013-02-06 09:48:00,
2013-02-06 03:49:00,36.1,28.6,30.04,SSE,158,0.0,0.0,74,0.00,,,0.00,WUHU215HW,2013-02-06 09:49:00,
2013-02-06 03:51:00,36.1,28.6,30.04,SSE,158,0.0,0.0,74,0.00,,,0.00,WUHU215HW,2013-02-06 09:51:00,
2013-02-06 03:53:00,36.1,28.6,30.04,SSE,158,0.0,0.0,74,0.00,,,0.00,WUHU215HW,2013-02-06 09:53:00,
2013-02-06 03:55:00,36.1,28.6,30.04,SSE,158,0.0,0.0,74,0.00,,,0.00,WUHU215HW,2013-02-06 09:55:00,
2013-02-06 03:59:00,36.1,28.6,30.04,SE,135,0.0,0.0,74,0.00,,,0.00,WUHU215HW,2013-02-06 09:59:00,
2013-02-06 04:01:00,36.1,28.6,30.04,SSE,158,0.0,0.0,74,0.00,,,0.00,WUHU215HW,2013-02-06 10:01:00,
2013-02-06 04:02:00,36.1,28.6,30.04,SSE,158,0.0,0.0,74,0.00,,,0.00,WUHU215HW,2013-02-06 10:02:00,
2013-02-06 04:04:00,36.1,28.6,30.04,SSE,158,0.0,0.0,74,0.00,,,0.00,WUHU215HW,2013-02-06 10:04:00,
2013-02-06 04:05:00,36.3,28.7,30.04,SSE,158,0.0,0.0,74,0.00,,,0.00,WUHU215HW,2013-02-06 10:05:00,
2013-02-06 04:06:00,36.3,28.7,30.04,SSE,158,0.0,0.0,74,0.00,,,0.00,WUHU215HW,2013-02-06 10:06:00,
2013-02-06 04:07:00,36.1,28.7,30.04,SSE,158,0.0,0.0,74,0.00,,,0.00,WUHU215HW,2013-02-06 10:07:00,
2013-02-06 04:12:00,36.1,28.6,30.04,SSE,158,0.0,0.0,74,0.00,,,0.00,WUHU215HW,2013-02-06 10:12:00,
2013-02-06 04:13:00,36.1,28.6,30.04,SSE,158,0.0,0.0,74,0.00,,,0.00,WUHU215HW,2013-02-06 10:13:00,
2013-02-06 04:14:00,36.3,28.6,30.04,SSE,158,0.0,0.0,74,0.00,,,0.00,WUHU215HW,2013-02-06 10:14:00,
2013-02-06 04:17:00,36.3,28.6,30.04,SSE,158,0.0,0.0,74,0.00,,,0.00,WUHU215HW,2013-02-06 10:17:00,
2013-02-06 04:19:00,36.3,28.6,30.04,SSE,158,0.0,0.0,74,0.00,,,0.00,WUHU215HW,2013-02-06 10:19:00,
2013-02-06 04:21:00,36.3,28.7,30.04,SSE,158,0.0,0.0,74,0.00,,,0.00,WUHU215HW,2013-02-06 10:21:00,
2013-02-06 04:23:00,36.3,28.7,30.04,SSE,158,0.0,0.0,74,0.00,,,0.00,WUHU215HW,2013-02-06 10:23:00,
2013-02-06 04:24:00,36.3,28.7,30.04,SSE,158,0.0,0.0,74,0.00,,,0.00,WUHU215HW,2013-02-06 10:24:00,
2013-02-06 04:28:00,36.3,28.7,30.04,SSE,158,0.0,0.0,74,0.00,,,0.00,WUHU215HW,2013-02-06 10:28:00,
2013-02-06 04:29:00,36.3,28.7,30.04,SSE,158,0.0,0.0,74,0.00,,,0.00,WUHU215HW,2013-02-06 10:29:00,
2013-02-06 04:33:00,36.3,28.7,30.04,SE,135,0.0,0.0,74,0.00,,,0.00,WUHU215HW,2013-02-06 10:33:00,
2013-02-06 04:35:00,36.3,28.7,30.04,SSE,158,0.0,0.0,74,0.00,,,0.00,WUHU215HW,2013-02-06 10:35:00,
2013-02-06 04:38:00,36.3,28.7,30.04,SE,135,0.0,0.0,74,0.00,,,0.00,WUHU215HW,2013-02-06 10:38:00,
2013-02-06 04:39:00,36.3,28.7,30.04,SE,135,0.0,0.0,74,0.00,,,0.00,WUHU215HW,2013-02-06 10:39:00,
2013-02-06 04:42:00,36.3,28.7,30.04,SSE,158,0.0,0.0,74,0.00,,,0.00,WUHU215HW,2013-02-06 10:42:00,
2013-02-06 04:43:00,36.3,28.7,30.04,SSE,158,0.0,0.0,74,0.00,,,0.00,WUHU215HW,2013-02-06 10:43:00,
2013-02-06 04:44:00,36.3,28.7,30.04,SSE,158,0.0,0.0,74,0.00,,,0.00,WUHU215HW,2013-02-06 10:44:00,
2013-02-06 04:49:00,36.3,28.7,30.04,South,180,0.0,0.0,74,0.00,,,0.00,WUHU215HW,2013-02-06 10:49:00,
2013-02-06 04:50:00,36.1,28.6,30.04,South,180,0.0,0.0,74,0.00,,,0.00,WUHU215HW,2013-02-06 10:50:00,
2013-02-06 04:52:00,36.1,28.6,30.04,SSE,158,0.0,0.0,74,0.00,,,0.00,WUHU215HW,2013-02-06 10:52:00,
2013-02-06 04:54:00,36.1,28.6,30.04,SSE,158,0.0,0.0,74,0.00,,,0.00,WUHU215HW,2013-02-06 10:54:00,
2013-02-06 04:57:00,36.1,28.6,30.04,SE,135,0.0,0.0,74,0.00,,,0.00,WUHU215HW,2013-02-06 10:57:00,
2013-02-06 05:00:00,36.1,28.6,30.04,SSE,158,0.0,0.0,74,0.00,,,0.00,WUHU215HW,2013-02-06 11:00:00,
2013-02-06 05:02:00,35.9,28.4,30.04,SSE,158,0.0,0.0,74,0.00,,,0.00,WUHU215HW,2013-02-06 11:02:00,
2013-02-06 05:03:00,35.9,28.4,30.04,SE,135,0.0,0.0,74,0.00,,,0.00,WUHU215HW,2013-02-06 11:03:00,
2013-02-06 05:07:00,35.7,28.4,30.04,SE,135,0.0,0.0,74,0.00,,,0.00,WUHU215HW,2013-02-06 11:07:00,
2013-02-06 05:08:00,35.7,28.2,30.04,SE,135,0.0,0.0,74,0.00,,,0.00,WUHU215HW,2013-02-06 11:08:00,
2013-02-06 05:09:00,35.7,28.2,30.04,SSE,158,0.0,0.0,74,0.00,,,0.00,WUHU215HW,2013-02-06 11:09:00,
2013-02-06 05:14:00,35.4,28.2,30.04,South,180,0.0,0.0,74,0.00,,,0.00,WUHU215HW,2013-02-06 11:14:00,
2013-02-06 05:16:00,35.4,28.2,30.04,South,180,0.0,0.0,74,0.00,,,0.00,WUHU215HW,2013-02-06 11:16:00,
2013-02-06 05:19:00,35.2,28.2,30.04,SSE,158,0.0,0.0,74,0.00,,,0.00,WUHU215HW,2013-02-06 11:19:00,
2013-02-06 05:21:00,35.2,27.7,30.04,SSE,158,0.0,0.0,74,0.00,,,0.00,WUHU215HW,2013-02-06 11:21:00,
2013-02-06 05:23:00,35.2,27.7,30.04,ESE,113,0.0,0.0,74,0.00,,,0.00,WUHU215HW,2013-02-06 11:23:00,
2013-02-06 05:27:00,34.8,27.6,30.04,SSW,203,0.0,0.0,75,0.00,,,0.00,WUHU215HW,2013-02-06 11:27:00,
2013-02-06 05:28:00,34.8,27.6,30.04,SSW,203,0.0,0.0,75,0.00,,,0.00,WUHU215HW,2013-02-06 11:28:00,
2013-02-06 05:32:00,34.5,27.3,30.04,SE,135,0.0,0.0,75,0.00,,,0.00,WUHU215HW,2013-02-06 11:32:00,
2013-02-06 05:34:00,34.5,27.3,30.04,SE,135,0.0,0.0,75,0.00,,,0.00,WUHU215HW,2013-02-06 11:34:00,
2013-02-06 05:35:00,34.3,27.1,30.04,SSE,158,0.0,0.0,75,0.00,,,0.00,WUHU215HW,2013-02-06 11:35:00,
2013-02-06 05:37:00,34.3,27.1,30.04,SSE,158,0.0,0.0,75,0.00,,,0.00,WUHU215HW,2013-02-06 11:37:00,
2013-02-06 05:39:00,34.3,27.1,30.04,SSE,158,0.0,0.0,75,0.00,,,0.00,WUHU215HW,2013-02-06 11:39:00,
2013-02-06 05:40:00,34.3,27.1,30.04,SSE,158,0.0,0.0,75,0.00,,,0.00,WUHU215HW,2013-02-06 11:40:00,
2013-02-06 05:42:00,34.1,27.2,30.04,SE,135,0.0,0.0,76,0.00,,,0.00,WUHU215HW,2013-02-06 11:42:00,
2013-02-06 05:45:00,34.1,27.2,30.04,SE,135,0.0,0.0,76,0.00,,,0.00,WUHU215HW,2013-02-06 11:45:00,
2013-02-06 05:46:00,33.9,27.1,30.04,SE,135,0.0,0.0,76,0.00,,,0.00,WUHU215HW,2013-02-06 11:46:00,
2013-02-06 05:48:00,33.9,27.1,30.04,SE,135,0.0,0.0,76,0.00,,,0.00,WUHU215HW,2013-02-06 11:48:00,
2013-02-06 05:50:00,33.8,26.9,30.04,SE,135,0.0,0.0,76,0.00,,,0.00,WUHU215HW,2013-02-06 11:50:00,
2013-02-06 05:53:00,33.8,26.9,30.04,SE,135,0.0,0.0,76,0.00,,,0.00,WUHU215HW,2013-02-06 11:53:00,
2013-02-06 05:55:00,33.8,26.9,30.04,SE,135,0.0,0.0,76,0.00,,,0.00,WUHU215HW,2013-02-06 11:55:00,
2013-02-06 05:57:00,33.6,26.9,30.04,SE,135,0.0,0.0,76,0.00,,,0.00,WUHU215HW,2013-02-06 11:57:00,
2013-02-06 05:59:00,33.6,26.9,30.04,SSE,158,0.0,0.0,76,0.00,,,0.00,WUHU215HW,2013-02-06 11:59:00,
2013-02-06 06:00:00,33.6,26.9,30.04,SSE,158,0.0,0.0,76,0.00,,,0.00,WUHU215HW,2013-02-06 12:00:00,
2013-02-06 06:02:00,33.6,26.9,30.04,SE,135,0.0,0.0,76,0.00,,,0.00,WUHU215HW,2013-02-06 12:02:00,
2013-02-06 06:05:00,33.6,27.0,30.04,SSE,158,0.0,0.0,77,0.00,,,0.00,WUHU215HW,2013-02-06 12:05:00,
2013-02-06 06:07:00,33.8,27.2,30.04,SSE,158,0.0,0.0,77,0.00,,,0.00,WUHU215HW,2013-02-06 12:07:00,
2013-02-06 06:10:00,33.8,27.2,30.04,SSE,158,0.0,0.0,77,0.00,,,0.00,WUHU215HW,2013-02-06 12:10:00,
2013-02-06 06:14:00,33.8,27.2,30.04,South,180,0.0,0.0,77,0.00,,,0.00,WUHU215HW,2013-02-06 12:14:00,
2013-02-06 06:15:00,33.8,27.2,30.04,South,180,0.0,0.0,77,0.00,,,0.00,WUHU215HW,2013-02-06 12:15:00,
2013-02-06 06:18:00,33.9,27.4,30.04,SSW,203,0.0,0.0,77,0.00,,,0.00,WUHU215HW,2013-02-06 12:18:00,
2013-02-06 06:19:00,33.9,27.4,30.04,SSW,203,0.0,0.0,77,0.00,,,0.00,WUHU215HW,2013-02-06 12:19:00,
2013-02-06 06:20:00,34.1,27.6,30.04,SSW,203,0.0,0.0,77,0.00,,,0.00,WUHU215HW,2013-02-06 12:20:00,
2013-02-06 06:23:00,34.1,27.6,30.04,SSE,158,0.0,0.0,77,0.00,,,0.00,WUHU215HW,2013-02-06 12:23:00,
2013-02-06 06:24:00,34.1,27.6,30.04,SSE,158,0.0,0.0,77,0.00,,,0.00,WUHU215HW,2013-02-06 12:24:00,
2013-02-06 06:25:00,34.1,27.6,30.04,SSE,158,0.0,0.0,77,0.00,,,0.00,WUHU215HW,2013-02-06 12:25:00,
2013-02-06 06:30:00,34.3,27.7,30.04,SSE,158,0.0,0.0,77,0.00,,,0.00,WUHU215HW,2013-02-06 12:30:00,
2013-02-06 06:31:00,34.3,27.7,30.04,SSE,158,0.0,0.0,77,0.00,,,0.00,WUHU215HW,2013-02-06 12:31:00,
2013-02-06 06:33:00,34.3,27.7,30.04,SSE,158,0.0,0.0,77,0.00,,,0.00,WUHU215HW,2013-02-06 12:33:00,
2013-02-06 06:36:00,34.3,27.7,30.04,SSE,158,0.0,0.0,77,0.00,,,0.00,WUHU215HW,2013-02-06 12:36:00,
2013-02-06 06:40:00,34.5,27.9,30.04,SE,135,0.0,0.0,77,0.00,,,0.00,WUHU215HW,2013-02-06 12:40:00,
2013-02-06 06:42:00,34.5,27.9,30.04,SSE,158,0.0,0.0,77,0.00,,,0.00,WUHU215HW,2013-02-06 12:42:00,
2013-02-06 06:44:00,34.5,27.9,30.04,SSE,158,0.0,0.0,77,0.00,,,0.00,WUHU215HW,2013-02-06 12:44:00,
2013-02-06 06:46:00,34.5,27.9,30.04,SSE,158,0.0,0.0,77,0.00,,,0.00,WUHU215HW,2013-02-06 12:46:00,
2013-02-06 06:50:00,34.5,27.9,30.04,SSE,158,0.0,0.0,77,0.00,,,0.00,WUHU215HW,2013-02-06 12:50:00,
2013-02-06 06:51:00,34.5,27.9,30.04,SSE,158,0.0,0.0,77,0.00,,,0.00,WUHU215HW,2013-02-06 12:51:00,
2013-02-06 06:52:00,34.5,27.9,30.04,SSW,203,0.0,0.0,77,0.00,,,0.00,WUHU215HW,2013-02-06 12:52:00,
2013-02-06 06:56:00,34.5,27.9,30.04,SSW,203,0.0,0.0,77,0.00,,,0.00,WUHU215HW,2013-02-06 12:56:00,
2013-02-06 06:57:00,34.5,27.9,30.04,SSW,203,0.0,0.0,77,0.00,,,0.00,WUHU215HW,2013-02-06 12:57:00,
2013-02-06 06:59:00,34.5,27.9,30.04,SE,135,0.0,0.0,77,0.00,,,0.00,WUHU215HW,2013-02-06 12:59:00,
2013-02-06 07:00:00,34.5,27.9,30.04,SE,135,0.0,0.0,77,0.00,,,0.00,WUHU215HW,2013-02-06 13:00:00,
2013-02-06 07:03:00,34.5,27.9,30.04,ESE,113,0.0,0.0,77,0.00,,,0.00,WUHU215HW,2013-02-06 13:03:00,
2013-02-06 07:06:00,34.5,27.9,30.04,SSW,203,0.0,0.0,77,0.00,,,0.00,WUHU215HW,2013-02-06 13:06:00,
2013-02-06 07:07:00,34.7,28.1,30.04,SSW,203,0.0,0.0,77,0.00,,,0.00,WUHU215HW,2013-02-06 13:07:00,
2013-02-06 07:11:00,34.7,28.1,30.04,SSE,158,0.0,0.0,77,0.00,,,0.00,WUHU215HW,2013-02-06 13:11:00,
2013-02-06 07:13:00,34.7,28.1,30.04,SE,135,0.0,0.0,77,0.00,,,0.00,WUHU215HW,2013-02-06 13:13:00,
2013-02-06 07:16:00,34.8,28.3,30.04,SE,135,0.0,0.0,77,0.00,,,0.00,WUHU215HW,2013-02-06 13:16:00,
2013-02-06 07:17:00,34.8,28.3,30.04,SE,135,0.0,0.0,77,0.00,,,0.00,WUHU215HW,2013-02-06 13:17:00,
2013-02-06 07:18:00,34.8,28.3,30.04,SE,135,0.0,0.0,77,0.00,,,0.00,WUHU215HW,2013-02-06 13:18:00,
2013-02-06 07:19:00,34.8,28.3,30.04,SE,135,0.0,0.0,77,0.00,,,0.00,WUHU215HW,2013-02-06 13:19:00,
2013-02-06 07:23:00,34.8,28.3,30.04,South,180,0.0,0.0,77,0.00,,,0.00,WUHU215HW,2013-02-06 13:23:00,
2013-02-06 07:24:00,35.0,28.3,30.04,South,180,0.0,0.0,77,0.00,,,0.00,WUHU215HW,2013-02-06 13:24:00,
2013-02-06 07:25:00,35.0,28.3,30.04,South,180,0.0,0.0,77,0.00,,,0.00,WUHU215HW,2013-02-06 13:25:00,
2013-02-06 07:29:00,35.2,28.6,30.04,South,180,0.0,0.0,77,0.00,,,0.00,WUHU215HW,2013-02-06 13:29:00,
2013-02-06 07:30:00,35.2,28.6,30.04,SSE,158,0.0,0.0,77,0.00,,,0.00,WUHU215HW,2013-02-06 13:30:00,
2013-02-06 07:33:00,35.2,28.6,30.04,ESE,113,0.0,0.0,77,0.00,,,0.00,WUHU215HW,2013-02-06 13:33:00,
2013-02-06 07:35:00,35.2,28.6,30.04,SSE,158,0.0,0.0,77,0.00,,,0.00,WUHU215HW,2013-02-06 13:35:00,
2013-02-06 07:40:00,35.4,28.8,30.04,SSW,203,0.0,0.0,77,0.00,,,0.00,WUHU215HW,2013-02-06 13:40:00,
2013-02-06 07:45:00,35.4,28.5,30.04,South,180,0.0,0.0,76,0.00,,,0.00,WUHU215HW,2013-02-06 13:45:00,
2013-02-06 07:46:00,35.4,28.5,30.04,South,180,0.0,0.0,76,0.00,,,0.00,WUHU215HW,2013-02-06 13:46:00,
2013-02-06 07:51:00,35.4,28.5,30.04,SSE,158,0.0,0.0,76,0.00,,,0.00,WUHU215HW,2013-02-06 13:51:00,
2013-02-06 07:54:00,35.7,28.9,30.04,SSE,158,0.0,0.0,76,0.00,,,0.00,WUHU215HW,2013-02-06 13:54:00,
2013-02-06 07:56:00,35.7,28.9,30.04,SSE,158,0.0,0.0,76,0.00,,,0.00,WUHU215HW,2013-02-06 13:56:00,
2013-02-06 07:59:00,35.7,28.9,30.04,SW,225,0.0,0.0,76,0.00,,,0.00,WUHU215HW,2013-02-06 13:59:00,
2013-02-06 08:01:00,35.7,28.9,30.04,SW,225,0.0,0.0,76,0.00,,,0.00,WUHU215HW,2013-02-06 14:01:00,
2013-02-06 08:02:00,35.7,28.9,30.04,SW,225,0.0,0.0,76,0.00,,,0.00,WUHU215HW,2013-02-06 14:02:00,
2013-02-06 08:04:00,35.9,29.0,30.04,SE,135,0.0,0.0,76,0.00,,,0.00,WUHU215HW,2013-02-06 14:04:00,
2013-02-06 08:06:00,36.1,29.0,30.04,South,180,0.0,0.0,75,0.00,,,0.00,WUHU215HW,2013-02-06 14:06:00,
2013-02-06 08:07:00,36.3,29.0,30.04,SW,225,0.0,0.0,75,0.00,,,0.00,WUHU215HW,2013-02-06 14:07:00,
2013-02-06 08:10:00,36.3,29.0,30.04,SSE,158,0.0,0.0,75,0.00,,,0.00,WUHU215HW,2013-02-06 14:10:00,
2013-02-06 08:11:00,36.3,29.0,30.04,SSE,158,0.0,0.0,75,0.00,,,0.00,WUHU215HW,2013-02-06 14:11:00,
2013-02-06 08:12:00,36.3,29.1,30.04,SSE,158,0.0,0.0,75,0.00,,,0.00,WUHU215HW,2013-02-06 14:12:00,
2013-02-06 08:16:00,36.6,29.1,30.04,SW,225,0.0,0.0,74,0.00,,,0.00,WUHU215HW,2013-02-06 14:16:00,
2013-02-06 08:21:00,36.8,29.3,30.04,WNW,293,0.0,0.0,74,0.00,,,0.00,WUHU215HW,2013-02-06 14:21:00,
2013-02-06 08:22:00,37.0,29.5,30.04,SSE,158,0.0,0.0,74,0.00,,,0.00,WUHU215HW,2013-02-06 14:22:00,
2013-02-06 08:23:00,37.0,29.5,30.04,SSE,158,0.0,0.0,74,0.00,,,0.00,WUHU215HW,2013-02-06 14:23:00,
2013-02-06 08:26:00,37.0,29.5,30.04,SSW,203,0.0,0.0,74,0.00,,,0.00,WUHU215HW,2013-02-06 14:26:00,
2013-02-06 08:30:00,37.2,29.6,30.04,SSE,158,0.0,0.0,74,0.00,,,0.00,WUHU215HW,2013-02-06 14:30:00,
2013-02-06 08:33:00,37.5,29.7,30.04,SSE,158,0.0,0.0,73,0.00,,,0.00,WUHU215HW,2013-02-06 14:33:00,
2013-02-06 08:35:00,37.5,29.7,30.04,SSE,158,0.0,0.0,73,0.00,,,0.00,WUHU215HW,2013-02-06 14:35:00,
2013-02-06 08:39:00,37.9,30.0,30.04,West,270,0.0,0.0,73,0.00,,,0.00,WUHU215HW,2013-02-06 14:39:00,
2013-02-06 08:41:00,37.9,29.7,30.04,South,180,0.0,0.0,72,0.00,,,0.00,WUHU215HW,2013-02-06 14:41:00,
2013-02-06 08:46:00,38.1,29.8,30.04,NE,45,0.6,0.6,72,0.00,,,0.00,WUHU215HW,2013-02-06 14:46:00,
2013-02-06 08:48:00,38.3,29.8,30.04,South,180,0.0,0.6,72,0.00,,,0.00,WUHU215HW,2013-02-06 14:48:00,
2013-02-06 08:50:00,38.4,29.8,30.04,SE,135,0.0,0.6,72,0.00,,,0.00,WUHU215HW,2013-02-06 14:50:00,
2013-02-06 08:53:00,38.6,29.8,30.04,SSE,158,0.0,0.6,71,0.00,,,0.00,WUHU215HW,2013-02-06 14:53:00,
2013-02-06 08:57:00,38.8,30.2,30.04,SE,135,0.0,0.0,71,0.00,,,0.00,WUHU215HW,2013-02-06 14:57:00,
2013-02-06 08:58:00,38.8,30.2,30.04,SE,135,0.0,0.0,71,0.00,,,0.00,WUHU215HW,2013-02-06 14:58:00,
2013-02-06 09:00:00,39.0,30.5,30.04,SE,135,0.0,0.0,71,0.00,,,0.00,WUHU215HW,2013-02-06 15:00:00,
2013-02-06 09:04:00,38.8,30.3,30.04,SSE,158,0.0,0.0,71,0.00,,,0.00,WUHU215HW,2013-02-06 15:04:00,
2013-02-06 09:05:00,39.0,30.2,30.04,SE,135,0.0,0.0,70,0.00,,,0.00,WUHU215HW,2013-02-06 15:05:00,
2013-02-06 09:09:00,39.0,30.2,30.04,South,180,0.0,0.0,70,0.00,,,0.00,WUHU215HW,2013-02-06 15:09:00,
2013-02-06 09:10:00,39.0,30.1,30.04,South,180,0.0,0.0,70,0.00,,,0.00,WUHU215HW,2013-02-06 15:10:00,
2013-02-06 09:14:00,39.2,30.3,30.04,SSW,203,0.0,0.0,70,0.00,,,0.00,WUHU215HW,2013-02-06 15:14:00,
2013-02-06 09:15:00,39.1,30.2,30.04,SSW,203,0.0,0.0,70,0.00,,,0.00,WUHU215HW,2013-02-06 15:15:00,
2013-02-06 09:16:00,39.1,30.2,30.04,SSE,158,0.0,0.0,70,0.00,,,0.00,WUHU215HW,2013-02-06 15:16:00,
2013-02-06 09:20:00,39.6,30.7,30.04,South,180,0.0,0.0,70,0.00,,,0.00,WUHU215HW,2013-02-06 15:20:00,
2013-02-06 09:22:00,39.7,30.4,30.04,SSW,203,0.0,0.0,69,0.00,,,0.00,WUHU215HW,2013-02-06 15:22:00,
2013-02-06 09:26:00,40.0,30.3,30.04,SSE,158,0.0,0.0,68,0.00,,,0.00,WUHU215HW,2013-02-06 15:26:00,
2013-02-06 09:29:00,40.0,30.4,30.04,SE,135,0.0,0.0,68,0.00,,,0.00,WUHU215HW,2013-02-06 15:29:00,
2013-02-06 09:31:00,39.9,30.3,30.04,South,180,0.0,0.0,68,0.00,,,0.00,WUHU215HW,2013-02-06 15:31:00,
2013-02-06 09:34:00,40.3,30.6,30.04,SSW,203,0.0,0.0,68,0.00,,,0.00,WUHU215HW,2013-02-06 15:34:00,
2013-02-06 09:35:00,40.2,30.2,30.04,SSE,158,0.0,0.0,67,0.00,,,0.00,WUHU215HW,2013-02-06 15:35:00,
2013-02-06 09:40:00,40.6,30.6,30.04,SE,135,0.0,0.0,67,0.00,,,0.00,WUHU215HW,2013-02-06 15:40:00,
2013-02-06 09:41:00,40.5,30.1,30.04,SSW,203,0.0,0.0,66,0.00,,,0.00,WUHU215HW,2013-02-06 15:41:00,
2013-02-06 09:45:00,40.6,30.2,30.04,SSW,203,0.0,0.0,66,0.00,,,0.00,WUHU215HW,2013-02-06 15:45:00,
2013-02-06 09:46:00,40.6,30.2,30.04,SSW,203,0.0,0.0,66,0.00,,,0.00,WUHU215HW,2013-02-06 15:46:00,
2013-02-06 09:47:00,40.9,30.5,30.04,SSW,203,0.0,0.0,66,0.00,,,0.00,WUHU215HW,2013-02-06 15:47:00,
2013-02-06 09:50:00,40.8,30.0,30.04,SSW,203,0.0,0.0,65,0.00,,,0.00,WUHU215HW,2013-02-06 15:50:00,
2013-02-06 09:51:00,40.7,30.0,30.04,SSW,203,0.0,0.0,65,0.00,,,0.00,WUHU215HW,2013-02-06 15:51:00,
2013-02-06 09:54:00,40.6,29.8,30.04,SSW,203,0.0,0.0,65,0.00,,,0.00,WUHU215HW,2013-02-06 15:54:00,
2013-02-06 09:56:00,40.5,29.7,30.04,SSW,203,0.0,0.0,65,0.00,,,0.00,WUHU215HW,2013-02-06 15:56:00,
2013-02-06 09:57:00,40.5,29.7,30.04,SSW,203,0.0,0.0,65,0.00,,,0.00,WUHU215HW,2013-02-06 15:57:00,
2013-02-06 09:59:00,41.3,30.1,30.04,SSW,203,0.0,0.0,64,0.00,,,0.00,WUHU215HW,2013-02-06 15:59:00,
2013-02-06 10:02:00,41.1,29.9,30.04,South,180,0.0,0.0,64,0.00,,,0.00,WUHU215HW,2013-02-06 16:02:00,
2013-02-06 10:07:00,41.8,30.2,30.04,SSW,203,0.0,0.0,63,0.00,,,0.00,WUHU215HW,2013-02-06 16:07:00,
2013-02-06 10:08:00,41.7,30.2,30.04,SSW,203,0.0,0.0,63,0.00,,,0.00,WUHU215HW,2013-02-06 16:08:00,
2013-02-06 10:10:00,41.7,30.1,30.04,SW,225,0.0,0.0,63,0.00,,,0.00,WUHU215HW,2013-02-06 16:10:00,
2013-02-06 10:13:00,42.4,30.4,30.04,SSE,158,0.0,0.0,62,0.00,,,0.00,WUHU215HW,2013-02-06 16:13:00,
2013-02-06 10:15:00,42.5,30.5,30.04,SE,135,0.0,0.0,62,0.00,,,0.00,WUHU215HW,2013-02-06 16:15:00,
2013-02-06 10:16:00,42.5,30.5,30.04,SE,135,0.0,0.0,62,0.00,,,0.00,WUHU215HW,2013-02-06 16:16:00,
2013-02-06 10:18:00,42.6,30.6,30.04,SSE,158,0.0,0.0,62,0.00,,,0.00,WUHU215HW,2013-02-06 16:18:00,
2013-02-06 10:20:00,42.6,30.2,30.04,South,180,0.0,0.0,61,0.00,,,0.00,WUHU215HW,2013-02-06 16:20:00,
2013-02-06 10:22:00,42.7,30.3,30.04,South,180,0.0,0.0,61,0.00,,,0.00,WUHU215HW,2013-02-06 16:22:00,
2013-02-06 10:23:00,42.7,30.2,30.04,South,180,0.0,0.0,61,0.00,,,0.00,WUHU215HW,2013-02-06 16:23:00,
2013-02-06 10:26:00,43.0,30.5,30.04,SSW,203,0.0,0.0,61,0.00,,,0.00,WUHU215HW,2013-02-06 16:26:00,
2013-02-06 10:27:00,42.9,30.5,30.04,SSW,203,0.0,0.0,61,0.00,,,0.00,WUHU215HW,2013-02-06 16:27:00,
2013-02-06 10:28:00,42.9,30.4,30.04,South,180,0.0,0.0,61,0.00,,,0.00,WUHU215HW,2013-02-06 16:28:00,
2013-02-06 10:31:00,43.0,30.5,30.04,South,180,0.0,0.0,61,0.00,,,0.00,WUHU215HW,2013-02-06 16:31:00,
2013-02-06 10:32:00,42.9,30.1,30.04,South,180,0.0,0.0,60,0.00,,,0.00,WUHU215HW,2013-02-06 16:32:00,
2013-02-06 10:34:00,42.8,30.0,30.04,South,180,0.0,0.0,60,0.00,,,0.00,WUHU215HW,2013-02-06 16:34:00,
2013-02-06 10:36:00,42.9,29.6,30.04,South,180,0.0,0.0,59,0.00,,,0.00,WUHU215HW,2013-02-06 16:36:00,
2013-02-06 10:37:00,42.8,29.5,30.04,SW,225,0.0,0.0,59,0.00,,,0.00,WUHU215HW,2013-02-06 16:37:00,
2013-02-06 10:41:00,42.7,29.4,30.04,South,180,0.0,0.0,59,0.00,,,0.00,WUHU215HW,2013-02-06 16:41:00,
2013-02-06 10:42:00,42.6,29.4,30.04,South,180,0.0,0.0,59,0.00,,,0.00,WUHU215HW,2013-02-06 16:42:00,
2013-02-06 10:43:00,42.6,29.3,30.04,South,180,0.0,0.0,59,0.00,,,0.00,WUHU215HW,2013-02-06 16:43:00,
2013-02-06 10:47:00,42.4,29.2,30.04,South,180,0.0,0.0,59,0.00,,,0.00,WUHU215HW,2013-02-06 16:47:00,
2013-02-06 10:48:00,42.4,29.2,30.04,South,180,0.0,0.0,59,0.00,,,0.00,WUHU215HW,2013-02-06 16:48:00,
2013-02-06 10:51:00,42.3,29.1,30.04,SSE,158,0.0,0.0,59,0.00,,,0.00,WUHU215HW,2013-02-06 16:51:00,
2013-02-06 10:53:00,42.2,29.0,30.04,South,180,0.0,0.0,59,0.00,,,0.00,WUHU215HW,2013-02-06 16:53:00,
2013-02-06 10:58:00,42.7,29.4,30.04,SSE,158,0.0,0.0,59,0.00,,,0.00,WUHU215HW,2013-02-06 16:58:00,
2013-02-06 10:59:00,42.6,29.4,30.04,SSE,158,0.0,0.0,59,0.00,,,0.00,WUHU215HW,2013-02-06 16:59:00,
2013-02-06 11:04:00,42.5,28.8,30.04,SE,135,0.0,0.0,58,0.00,,,0.00,WUHU215HW,2013-02-06 17:04:00,
2013-02-06 11:08:00,42.3,28.7,30.04,SSE,158,0.0,0.0,58,0.00,,,0.00,WUHU215HW,2013-02-06 17:08:00,
2013-02-06 11:09:00,42.5,28.8,30.04,SSE,158,0.0,0.0,58,0.00,,,0.00,WUHU215HW,2013-02-06 17:09:00,
2013-02-06 11:11:00,42.5,29.2,30.04,SSE,158,0.0,0.0,59,0.00,,,0.00,WUHU215HW,2013-02-06 17:11:00,
2013-02-06 11:13:00,42.4,29.1,30.04,South,180,0.0,0.0,59,0.00,,,0.00,WUHU215HW,2013-02-06 17:13:00,
2013-02-06 11:14:00,42.4,29.1,30.04,SE,135,0.0,0.0,59,0.00,,,0.00,WUHU215HW,2013-02-06 17:14:00,
2013-02-06 11:18:00,42.8,29.5,30.04,SSE,158,0.0,0.0,59,0.00,,,0.00,WUHU215HW,2013-02-06 17:18:00,
2013-02-06 11:19:00,42.7,29.5,30.04,SSE,158,0.0,0.0,59,0.00,,,0.00,WUHU215HW,2013-02-06 17:19:00,
2013-02-06 11:20:00,42.9,29.6,30.04,SSE,158,0.0,0.0,59,0.00,,,0.00,WUHU215HW,2013-02-06 17:20:00,
2013-02-06 11:21:00,42.9,29.6,30.04,SSE,158,0.0,0.0,59,0.00,,,0.00,WUHU215HW,2013-02-06 17:21:00,
2013-02-06 11:23:00,43.0,29.7,30.04,SSE,158,0.0,0.0,59,0.00,,,0.00,WUHU215HW,2013-02-06 17:23:00,
2013-02-06 11:24:00,43.1,29.8,30.04,SW,225,0.0,0.0,59,0.00,,,0.00,WUHU215HW,2013-02-06 17:24:00,
2013-02-06 11:27:00,43.0,29.7,30.04,SW,225,0.0,0.0,59,0.00,,,0.00,WUHU215HW,2013-02-06 17:27:00,
2013-02-06 11:28:00,43.2,29.9,30.04,SW,225,0.0,0.0,59,0.00,,,0.00,WUHU215HW,2013-02-06 17:28:00,
2013-02-06 11:30:00,43.4,29.6,30.04,SSE,158,0.0,0.0,58,0.00,,,0.00,WUHU215HW,2013-02-06 17:30:00,
2013-02-06 11:32:00,43.5,29.8,30.04,SE,135,0.0,0.0,58,0.00,,,0.00,WUHU215HW,2013-02-06 17:32:00,
2013-02-06 11:33:00,43.5,29.7,30.04,SE,135,0.0,0.0,58,0.00,,,0.00,WUHU215HW,2013-02-06 17:33:00,
2013-02-06 11:37:00,43.7,29.9,30.04,SE,135,0.0,0.0,58,0.00,,,0.00,WUHU215HW,2013-02-06 17:37:00,
2013-02-06 11:38:00,43.7,29.9,30.04,SE,135,0.0,0.0,58,0.00,,,0.00,WUHU215HW,2013-02-06 17:38:00,
2013-02-06 11:43:00,43.6,29.8,30.04,WSW,248,0.0,0.0,58,0.00,,,0.00,WUHU215HW,2013-02-06 17:43:00,
2013-02-06 11:44:00,43.8,29.6,30.04,SSE,158,0.0,0.0,57,0.00,,,0.00,WUHU215HW,2013-02-06 17:44:00,
2013-02-06 11:45:00,43.9,29.7,30.04,South,180,0.0,0.0,57,0.00,,,0.00,WUHU215HW,2013-02-06 17:45:00,
2013-02-06 11:48:00,43.9,29.7,30.04,SSE,158,0.0,0.0,57,0.00,,,0.00,WUHU215HW,2013-02-06 17:48:00,
2013-02-06 11:49:00,43.9,29.7,30.04,SSE,158,0.0,0.0,57,0.00,,,0.00,WUHU215HW,2013-02-06 17:49:00,
2013-02-06 11:53:00,44.0,29.8,30.04,WSW,248,0.0,0.0,57,0.00,,,0.00,WUHU215HW,2013-02-06 17:53:00,
2013-02-06 11:54:00,44.0,29.8,30.04,SSE,158,0.0,0.0,57,0.00,,,0.00,WUHU215HW,2013-02-06 17:54:00,
2013-02-06 11:56:00,44.0,29.8,30.04,SSE,158,0.0,0.0,57,0.00,,,0.00,WUHU215HW,2013-02-06 17:56:00,
2013-02-06 12:01:00,44.2,30.0,30.04,SSE,158,0.0,0.0,57,0.00,,,0.00,WUHU215HW,2013-02-06 18:01:00,
2013-02-06 12:02:00,44.2,30.0,30.04,WSW,248,0.0,0.0,57,0.00,,,0.00,WUHU215HW,2013-02-06 18:02:00,
2013-02-06 12:04:00,44.2,29.9,30.04,SW,225,0.0,0.0,57,0.00,,,0.00,WUHU215HW,2013-02-06 18:04:00,
2013-02-06 12:06:00,44.1,29.9,30.04,SW,225,0.0,0.0,57,0.00,,,0.00,WUHU215HW,2013-02-06 18:06:00,
2013-02-06 12:08:00,44.3,30.1,30.04,SE,135,0.0,0.0,57,0.00,,,0.00,WUHU215HW,2013-02-06 18:08:00,
2013-02-06 12:11:00,44.7,30.4,30.04,SSE,158,0.0,0.0,57,0.00,,,0.00,WUHU215HW,2013-02-06 18:11:00,
2013-02-06 12:12:00,44.7,30.4,30.04,SSE,158,0.0,0.0,57,0.00,,,0.00,WUHU215HW,2013-02-06 18:12:00,
2013-02-06 12:15:00,44.7,30.4,30.04,SW,225,0.0,0.0,57,0.00,,,0.00,WUHU215HW,2013-02-06 18:15:00,
2013-02-06 12:17:00,44.9,30.6,30.04,SW,225,0.0,0.0,57,0.00,,,0.00,WUHU215HW,2013-02-06 18:17:00,
2013-02-06 12:19:00,44.9,30.7,30.04,SE,135,0.0,0.0,57,0.00,,,0.00,WUHU215HW,2013-02-06 18:19:00,
2013-02-06 12:21:00,44.9,30.7,30.04,WSW,248,0.0,0.0,57,0.00,,,0.00,WUHU215HW,2013-02-06 18:21:00,
2013-02-06 12:25:00,44.9,30.6,30.04,SSW,203,0.0,0.0,57,0.00,,,0.00,WUHU215HW,2013-02-06 18:25:00,
2013-02-06 12:27:00,45.5,31.2,30.04,SSE,158,0.0,0.0,57,0.00,,,0.00,WUHU215HW,2013-02-06 18:27:00,
2013-02-06 12:30:00,45.7,31.4,30.04,SSW,203,0.0,0.0,57,0.00,,,0.00,WUHU215HW,2013-02-06 18:30:00,
2013-02-06 12:34:00,46.2,31.9,30.04,SE,135,0.0,0.0,57,0.00,,,0.00,WUHU215HW,2013-02-06 18:34:00,
2013-02-06 12:35:00,46.2,31.9,30.04,SE,135,0.0,0.0,57,0.00,,,0.00,WUHU215HW,2013-02-06 18:35:00,
2013-02-06 12:39:00,46.4,32.0,30.04,SE,135,0.0,0.0,57,0.00,,,0.00,WUHU215HW,2013-02-06 18:39:00,
2013-02-06 12:40:00,46.4,32.0,30.04,SE,135,0.0,0.0,57,0.00,,,0.00,WUHU215HW,2013-02-06 18:40:00,
2013-02-06 12:42:00,46.7,31.9,30.04,SE,135,0.0,0.0,56,0.00,,,0.00,WUHU215HW,2013-02-06 18:42:00,
2013-02-06 12:46:00,47.3,32.5,30.04,SSE,158,0.0,0.0,56,0.00,,,0.00,WUHU215HW,2013-02-06 18:46:00,
2013-02-06 12:48:00,47.6,32.8,30.04,SW,225,0.0,0.0,56,0.00,,,0.00,WUHU215HW,2013-02-06 18:48:00,
2013-02-06 12:51:00,48.5,33.1,30.04,SSE,158,0.0,0.0,55,0.00,,,0.00,WUHU215HW,2013-02-06 18:51:00,
2013-02-06 12:52:00,48.5,33.1,30.04,SSE,158,0.0,0.0,55,0.00,,,0.00,WUHU215HW,2013-02-06 18:52:00,
2013-02-06 12:54:00,48.8,33.4,30.04,SSE,158,0.0,0.0,55,0.00,,,0.00,WUHU215HW,2013-02-06 18:54:00,
2013-02-06 12:56:00,49.0,33.6,30.04,SSE,158,0.0,0.0,55,0.00,,,0.00,WUHU215HW,2013-02-06 18:56:00,
2013-02-06 12:58:00,49.4,34.0,30.04,SW,225,0.0,0.0,55,0.00,,,0.00,WUHU215HW,2013-02-06 18:58:00,
2013-02-06 12:59:00,49.4,34.0,30.04,SW,225,0.0,0.0,55,0.00,,,0.00,WUHU215HW,2013-02-06 18:59:00,
2013-02-06 13:03:00,50.2,34.7,30.04,WSW,248,0.0,0.0,55,0.00,,,0.00,WUHU215HW,2013-02-06 19:03:00,
2013-02-06 13:08:00,51.4,35.4,30.04,South,180,0.0,0.0,54,0.00,,,0.00,WUHU215HW,2013-02-06 19:08:00,
2013-02-06 13:09:00,51.6,35.6,30.04,SW,225,0.0,0.0,54,0.00,,,0.00,WUHU215HW,2013-02-06 19:09:00,
2013-02-06 13:11:00,52.1,36.0,30.04,SW,225,0.0,0.0,54,0.00,,,0.00,WUHU215HW,2013-02-06 19:11:00,
2013-02-06 13:14:00,52.1,36.0,30.04,SE,135,0.0,0.0,54,0.00,,,0.00,WUHU215HW,2013-02-06 19:14:00,
2013-02-06 13:16:00,52.1,35.0,30.04,SSW,203,0.0,0.0,52,0.00,,,0.00,WUHU215HW,2013-02-06 19:16:00,
2013-02-06 13:17:00,52.1,35.1,30.04,South,180,0.0,0.0,52,0.00,,,0.00,WUHU215HW,2013-02-06 19:17:00,
2013-02-06 13:20:00,52.0,34.9,30.04,WSW,248,0.0,0.0,52,0.00,,,0.00,WUHU215HW,2013-02-06 19:20:00,
2013-02-06 13:22:00,52.0,35.0,30.04,WSW,248,0.0,0.0,52,0.00,,,0.00,WUHU215HW,2013-02-06 19:22:00,
2013-02-06 13:25:00,52.1,35.0,30.04,WSW,248,0.0,0.0,52,0.00,,,0.00,WUHU215HW,2013-02-06 19:25:00,
2013-02-06 13:27:00,52.1,35.0,30.04,West,270,0.0,0.0,52,0.00,,,0.00,WUHU215HW,2013-02-06 19:27:00,
2013-02-06 13:28:00,52.1,35.1,30.04,West,270,0.0,0.0,52,0.00,,,0.00,WUHU215HW,2013-02-06 19:28:00,
2013-02-06 13:33:00,53.1,35.5,30.04,West,270,0.0,0.0,51,0.00,,,0.00,WUHU215HW,2013-02-06 19:33:00,
2013-02-06 13:34:00,53.2,35.5,30.04,SE,135,0.0,0.0,51,0.00,,,0.00,WUHU215HW,2013-02-06 19:34:00,
2013-02-06 13:38:00,53.7,35.4,30.04,SSE,158,0.0,0.0,50,0.00,,,0.00,WUHU215HW,2013-02-06 19:38:00,
2013-02-06 13:39:00,53.8,35.6,30.04,SSE,158,0.0,0.0,50,0.00,,,0.00,WUHU215HW,2013-02-06 19:39:00,
2013-02-06 13:40:00,53.8,35.6,30.04,SSE,158,0.0,0.0,50,0.00,,,0.00,WUHU215HW,2013-02-06 19:40:00,
2013-02-06 13:44:00,54.5,36.2,30.04,SSE,158,0.0,0.0,50,0.00,,,0.00,WUHU215HW,2013-02-06 19:44:00,
2013-02-06 13:45:00,54.5,35.7,30.04,SSE,158,0.0,0.0,49,0.00,,,0.00,WUHU215HW,2013-02-06 19:45:00,
2013-02-06 13:46:00,54.6,35.7,30.04,SSE,158,0.0,0.0,49,0.00,,,0.00,WUHU215HW,2013-02-06 19:46:00,
2013-02-06 13:47:00,54.9,36.1,30.04,SSE,158,0.0,0.0,49,0.00,,,0.00,WUHU215HW,2013-02-06 19:47:00,
2013-02-06 13:52:00,55.0,36.2,30.04,SSW,203,0.0,0.0,49,0.00,,,0.00,WUHU215HW,2013-02-06 19:52:00,
2013-02-06 13:53:00,55.0,36.2,30.04,SSW,203,0.0,0.0,49,0.00,,,0.00,WUHU215HW,2013-02-06 19:53:00,
2013-02-06 13:57:00,55.8,36.3,30.04,WSW,248,0.0,0.0,48,0.00,,,0.00,WUHU215HW,2013-02-06 19:57:00,
2013-02-06 13:58:00,55.8,36.3,30.04,WSW,248,0.0,0.0,48,0.00,,,0.00,WUHU215HW,2013-02-06 19:58:00,
2013-02-06 13:59:00,55.8,36.4,30.04,WSW,248,0.0,0.0,48,0.00,,,0.00,WUHU215HW,2013-02-06 19:59:00,
2013-02-06 14:04:00,56.0,36.5,30.04,WSW,248,0.0,0.0,48,0.00,,,0.00,WUHU215HW,2013-02-06 20:04:00,
2013-02-06 14:08:00,56.1,36.6,30.04,WSW,248,0.0,0.0,48,0.00,,,0.00,WUHU215HW,2013-02-06 20:08:00,
2013-02-06 14:09:00,55.9,35.9,30.04,WSW,248,0.0,0.0,47,0.00,,,0.00,WUHU215HW,2013-02-06 20:09:00,
2013-02-06 14:14:00,56.1,36.1,30.04,WSW,248,0.0,0.0,47,0.00,,,0.00,WUHU215HW,2013-02-06 20:14:00,
2013-02-06 14:19:00,56.3,36.3,30.04,WSW,248,0.0,0.0,47,0.00,,,0.00,WUHU215HW,2013-02-06 20:19:00,
2013-02-06 14:20:00,56.3,36.3,30.04,WSW,248,0.0,0.0,47,0.00,,,0.00,WUHU215HW,2013-02-06 20:20:00,
2013-02-06 14:21:00,56.4,36.3,30.04,WSW,248,0.0,0.0,47,0.00,,,0.00,WUHU215HW,2013-02-06 20:21:00,
2013-02-06 14:24:00,56.5,36.4,30.04,WSW,248,0.0,0.0,47,0.00,,,0.00,WUHU215HW,2013-02-06 20:24:00,
2013-02-06 14:25:00,56.5,36.5,30.04,WSW,248,0.0,0.0,47,0.00,,,0.00,WUHU215HW,2013-02-06 20:25:00,
2013-02-06 14:30:00,55.8,36.9,30.04,SSE,158,0.0,0.0,49,0.00,,,0.00,WUHU215HW,2013-02-06 20:30:00,
2013-02-06 14:31:00,55.8,36.9,30.04,SSE,158,0.0,0.0,49,0.00,,,0.00,WUHU215HW,2013-02-06 20:31:00,
2013-02-06 14:35:00,56.0,37.1,30.04,SSE,158,0.0,0.0,49,0.00,,,0.00,WUHU215HW,2013-02-06 20:35:00,
2013-02-06 14:41:00,56.2,37.3,30.04,SSE,158,0.0,0.0,49,0.00,,,0.00,WUHU215HW,2013-02-06 20:41:00,
2013-02-06 14:47:00,56.5,37.0,30.04,SE,135,0.0,0.0,48,0.00,,,0.00,WUHU215HW,2013-02-06 20:47:00,
2013-02-06 14:48:00,56.5,37.0,30.04,SSE,158,0.0,0.0,48,0.00,,,0.00,WUHU215HW,2013-02-06 20:48:00,
2013-02-06 14:52:00,56.7,37.2,30.04,SW,225,0.0,0.0,48,0.00,,,0.00,WUHU215HW,2013-02-06 20:52:00,
2013-02-06 14:54:00,56.6,37.1,30.04,SW,225,0.0,0.0,48,0.00,,,0.00,WUHU215HW,2013-02-06 20:54:00,
2013-02-06 14:58:00,56.8,37.8,30.04,West,270,0.0,0.0,49,0.00,,,0.00,WUHU215HW,2013-02-06 20:58:00,
2013-02-06 14:59:00,56.8,37.8,30.04,West,270,0.0,0.0,49,0.00,,,0.00,WUHU215HW,2013-02-06 20:59:00,
2013-02-06 15:04:00,56.8,37.3,30.04,South,180,0.0,0.0,48,0.00,,,0.00,WUHU215HW,2013-02-06 21:04:00,
2013-02-06 15:05:00,57.3,38.3,30.04,South,180,0.0,0.0,49,0.00,,,0.00,WUHU215HW,2013-02-06 21:05:00,
2013-02-06 15:09:00,57.7,38.6,30.04,SSE,158,0.0,0.0,49,0.00,,,0.00,WUHU215HW,2013-02-06 21:09:00,
2013-02-06 15:10:00,57.7,38.7,30.04,SSE,158,0.0,0.0,49,0.00,,,0.00,WUHU215HW,2013-02-06 21:10:00,
2013-02-06 15:12:00,57.8,38.8,30.04,SW,225,0.0,0.0,49,0.00,,,0.00,WUHU215HW,2013-02-06 21:12:00,
2013-02-06 15:14:00,57.9,38.8,30.04,SSE,158,0.0,0.0,49,0.00,,,0.00,WUHU215HW,2013-02-06 21:14:00,
2013-02-06 15:15:00,58.3,38.6,30.04,SSE,158,0.0,0.0,48,0.00,,,0.00,WUHU215HW,2013-02-06 21:15:00,
2013-02-06 15:18:00,58.4,38.7,30.04,SSE,158,0.0,0.0,48,0.00,,,0.00,WUHU215HW,2013-02-06 21:18:00,
2013-02-06 15:20:00,58.5,38.8,30.04,SSE,158,0.0,0.0,48,0.00,,,0.00,WUHU215HW,2013-02-06 21:20:00,
2013-02-06 15:23:00,58.6,39.0,30.04,SSE,158,0.0,0.0,48,0.00,,,0.00,WUHU215HW,2013-02-06 21:23:00,
2013-02-06 15:27:00,58.5,38.9,30.04,SSE,158,0.0,0.0,48,0.00,,,0.00,WUHU215HW,2013-02-06 21:27:00,
2013-02-06 15:28:00,58.6,38.9,30.04,SSE,158,0.0,0.0,48,0.00,,,0.00,WUHU215HW,2013-02-06 21:28:00,
2013-02-06 15:30:00,58.7,39.0,30.04,SE,135,0.0,0.0,48,0.00,,,0.00,WUHU215HW,2013-02-06 21:30:00,
2013-02-06 15:33:00,58.8,39.7,30.04,SSE,158,0.0,0.0,49,0.00,,,0.00,WUHU215HW,2013-02-06 21:33:00,
2013-02-06 15:34:00,58.9,39.7,30.04,SSE,158,0.0,0.0,49,0.00,,,0.00,WUHU215HW,2013-02-06 21:34:00,
2013-02-06 15:36:00,59.0,39.8,30.04,SSW,203,0.0,0.0,49,0.00,,,0.00,WUHU215HW,2013-02-06 21:36:00,
2013-02-06 15:39:00,59.1,40.0,30.04,SSW,203,0.0,0.0,49,0.00,,,0.00,WUHU215HW,2013-02-06 21:39:00,
2013-02-06 15:40:00,59.2,40.0,30.04,SSW,203,0.0,0.0,49,0.00,,,0.00,WUHU215HW,2013-02-06 21:40:00,
2013-02-06 15:41:00,59.2,40.1,30.04,SSW,203,0.0,0.0,49,0.00,,,0.00,WUHU215HW,2013-02-06 21:41:00,
2013-02-06 15:43:00,59.3,40.2,30.04,SSW,203,0.0,0.0,49,0.00,,,0.00,WUHU215HW,2013-02-06 21:43:00,
2013-02-06 15:47:00,59.7,40.5,30.04,WSW,248,0.0,0.0,49,0.00,,,0.00,WUHU215HW,2013-02-06 21:47:00,
2013-02-06 15:49:00,59.9,40.7,30.04,WSW,248,0.0,0.0,49,0.00,,,0.00,WUHU215HW,2013-02-06 21:49:00,
2013-02-06 15:52:00,60.1,40.9,30.04,WSW,248,0.0,0.0,49,0.00,,,0.00,WUHU215HW,2013-02-06 21:52:00,
2013-02-06 15:54:00,60.4,41.1,30.04,SSW,203,0.0,0.0,49,0.00,,,0.00,WUHU215HW,2013-02-06 21:54:00,
2013-02-06 15:55:00,60.4,41.2,30.04,SSW,203,0.0,0.0,49,0.00,,,0.00,WUHU215HW,2013-02-06 21:55:00,
2013-02-06 15:57:00,60.5,41.3,30.04,SSW,203,0.0,0.0,49,0.00,,,0.00,WUHU215HW,2013-02-06 21:57:00,
2013-02-06 16:00:00,60.9,41.6,30.04,SSW,203,0.0,0.0,49,0.00,,,0.00,WUHU215HW,2013-02-06 22:00:00,
2013-02-06 16:03:00,61.3,41.9,30.04,South,180,0.0,0.0,49,0.00,,,0.00,WUHU215HW,2013-02-06 22:03:00,
2013-02-06 16:05:00,61.4,42.0,30.04,WSW,248,0.0,0.0,49,0.00,,,0.00,WUHU215HW,2013-02-06 22:05:00,
2013-02-06 16:06:00,61.4,42.1,30.04,WSW,248,0.0,0.0,49,0.00,,,0.00,WUHU215HW,2013-02-06 22:06:00,
2013-02-06 16:09:00,61.2,41.9,30.04,SSE,158,0.0,0.0,49,0.00,,,0.00,WUHU215HW,2013-02-06 22:09:00,
2013-02-06 16:12:00,61.1,41.8,30.04,ESE,113,0.0,0.0,49,0.00,,,0.00,WUHU215HW,2013-02-06 22:12:00,
2013-02-06 16:14:00,60.8,41.5,30.04,ESE,113,0.0,0.0,49,0.00,,,0.00,WUHU215HW,2013-02-06 22:14:00,
2013-02-06 16:15:00,60.5,41.3,30.04,SW,225,0.0,0.0,49,0.00,,,0.00,WUHU215HW,2013-02-06 22:15:00,
2013-02-06 16:17:00,60.4,41.2,30.04,SE,135,0.0,0.0,49,0.00,,,0.00,WUHU215HW,2013-02-06 22:17:00,
2013-02-06 16:20:00,60.2,40.9,30.04,SE,135,0.0,0.0,49,0.00,,,0.00,WUHU215HW,2013-02-06 22:20:00,
2013-02-06 16:22:00,59.9,40.6,30.04,SE,135,0.0,0.0,49,0.00,,,0.00,WUHU215HW,2013-02-06 22:22:00,
2013-02-06 16:25:00,59.7,40.5,30.04,SSE,158,0.0,0.0,49,0.00,,,0.00,WUHU215HW,2013-02-06 22:25:00,
2013-02-06 16:27:00,59.4,40.8,30.04,SSW,203,0.0,0.0,50,0.00,,,0.00,WUHU215HW,2013-02-06 22:27:00,
2013-02-06 16:28:00,59.4,40.7,30.04,SE,135,0.0,0.0,50,0.00,,,0.00,WUHU215HW,2013-02-06 22:28:00,
2013-02-06 16:33:00,58.7,40.1,30.04,SSW,203,0.0,0.0,50,0.00,,,0.00,WUHU215HW,2013-02-06 22:33:00,
2013-02-06 16:34:00,58.6,40.0,30.04,SSW,203,0.0,0.0,50,0.00,,,0.00,WUHU215HW,2013-02-06 22:34:00,
2013-02-06 16:38:00,58.0,40.0,30.04,SSW,203,0.0,0.0,51,0.00,,,0.00,WUHU215HW,2013-02-06 22:38:00,
2013-02-06 16:39:00,57.9,39.9,30.04,SSW,203,0.0,0.0,51,0.00,,,0.00,WUHU215HW,2013-02-06 22:39:00,
2013-02-06 16:43:00,57.6,39.6,30.04,SSW,203,0.0,0.0,51,0.00,,,0.00,WUHU215HW,2013-02-06 22:43:00,
2013-02-06 16:44:00,57.5,39.5,30.04,SSW,203,0.0,0.0,51,0.00,,,0.00,WUHU215HW,2013-02-06 22:44:00,
2013-02-06 16:47:00,57.2,39.8,30.04,SSW,203,0.0,0.0,52,0.00,,,0.00,WUHU215HW,2013-02-06 22:47:00,
2013-02-06 16:49:00,57.0,39.6,30.04,SSW,203,0.0,0.0,52,0.00,,,0.00,WUHU215HW,2013-02-06 22:49:00,
2013-02-06 16:52:00,56.7,39.3,30.04,SW,225,0.0,0.0,52,0.00,,,0.00,WUHU215HW,2013-02-06 22:52:00,
2013-02-06 16:55:00,56.6,39.2,30.04,SSW,203,0.0,0.0,52,0.00,,,0.00,WUHU215HW,2013-02-06 22:55:00,
2013-02-06 16:57:00,56.5,39.1,30.04,SSW,203,0.0,0.0,52,0.00,,,0.00,WUHU215HW,2013-02-06 22:57:00,
2013-02-06 16:58:00,56.3,38.9,30.04,SSW,203,0.0,0.0,52,0.00,,,0.00,WUHU215HW,2013-02-06 22:58:00,
2013-02-06 17:01:00,56.2,39.3,30.04,SSW,203,0.0,0.0,53,0.00,,,0.00,WUHU215HW,2013-02-06 23:01:00,
2013-02-06 17:03:00,55.9,39.1,30.04,SSW,203,0.0,0.0,53,0.00,,,0.00,WUHU215HW,2013-02-06 23:03:00,
2013-02-06 17:05:00,55.7,38.8,30.04,SSW,203,0.0,0.0,53,0.00,,,0.00,WUHU215HW,2013-02-06 23:05:00,
2013-02-06 17:07:00,55.6,38.8,30.04,SSW,203,0.0,0.0,53,0.00,,,0.00,WUHU215HW,2013-02-06 23:07:00,
2013-02-06 17:08:00,55.6,38.8,30.04,SSW,203,0.0,0.0,53,0.00,,,0.00,WUHU215HW,2013-02-06 23:08:00,
2013-02-06 17:10:00,55.2,38.4,30.04,SSW,203,0.0,0.0,53,0.00,,,0.00,WUHU215HW,2013-02-06 23:10:00,
2013-02-06 17:13:00,55.0,38.2,30.04,SSW,203,0.0,0.0,53,0.00,,,0.00,WUHU215HW,2013-02-06 23:13:00,
2013-02-06 17:16:00,54.9,38.6,30.04,SSW,203,0.0,0.0,54,0.00,,,0.00,WUHU215HW,2013-02-06 23:16:00,
2013-02-06 17:17:00,54.5,38.2,30.04,SSW,203,0.0,0.0,54,0.00,,,0.00,WUHU215HW,2013-02-06 23:17:00,
2013-02-06 17:18:00,54.5,38.2,30.04,SSW,203,0.0,0.0,54,0.00,,,0.00,WUHU215HW,2013-02-06 23:18:00,
2013-02-06 17:19:00,54.2,37.9,30.04,SSW,203,0.0,0.0,54,0.00,,,0.00,WUHU215HW,2013-02-06 23:19:00,
2013-02-06 17:22:00,54.1,37.9,30.04,SSW,203,0.0,0.0,54,0.00,,,0.00,WUHU215HW,2013-02-06 23:22:00,
2013-02-06 17:23:00,54.1,37.9,30.04,SSW,203,0.0,0.0,54,0.00,,,0.00,WUHU215HW,2013-02-06 23:23:00,
2013-02-06 17:24:00,53.9,37.7,30.04,SSW,203,0.0,0.0,54,0.00,,,0.00,WUHU215HW,2013-02-06 23:24:00,
2013-02-06 17:28:00,53.3,37.6,30.04,SSW,203,0.0,0.0,55,0.00,,,0.00,WUHU215HW,2013-02-06 23:28:00,
2013-02-06 17:29:00,53.3,37.6,30.04,SSW,203,0.0,0.0,55,0.00,,,0.00,WUHU215HW,2013-02-06 23:29:00,
2013-02-06 17:34:00,52.7,37.0,30.04,SSW,203,0.0,0.0,55,0.00,,,0.00,WUHU215HW,2013-02-06 23:34:00,
2013-02-06 17:36:00,52.5,37.3,30.04,SSW,203,0.0,0.0,56,0.00,,,0.00,WUHU215HW,2013-02-06 23:36:00,
2013-02-06 17:39:00,52.2,37.0,30.04,SSW,203,0.0,0.0,56,0.00,,,0.00,WUHU215HW,2013-02-06 23:39:00,
2013-02-06 17:41:00,52.0,36.9,30.04,SSW,203,0.0,0.0,56,0.00,,,0.00,WUHU215HW,2013-02-06 23:41:00,
2013-02-06 17:45:00,51.6,37.0,30.04,SSW,203,0.0,0.0,57,0.00,,,0.00,WUHU215HW,2013-02-06 23:45:00,
2013-02-06 17:46:00,51.6,37.0,30.04,SSW,203,0.0,0.0,57,0.00,,,0.00,WUHU215HW,2013-02-06 23:46:00,
2013-02-06 17:50:00,51.4,37.2,30.04,SSW,203,0.0,0.0,58,0.00,,,0.00,WUHU215HW,2013-02-06 23:50:00,
2013-02-06 17:53:00,51.4,37.2,30.04,SSW,203,0.0,0.0,58,0.00,,,0.00,WUHU215HW,2013-02-06 23:53:00,
2013-02-06 17:54:00,51.2,37.0,30.04,SSW,203,0.0,0.0,58,0.00,,,0.00,WUHU215HW,2013-02-06 23:54:00,
2013-02-06 17:57:00,51.1,37.3,30.04,SSW,203,0.0,0.0,59,0.00,,,0.00,WUHU215HW,2013-02-06 23:57:00,
2013-02-06 17:59:00,51.1,37.4,30.04,SSW,203,0.0,0.0,59,0.00,,,0.00,WUHU215HW,2013-02-06 23:59:00,
2013-02-06 18:00:00,51.1,37.4,30.04,SSW,203,0.0,0.0,59,0.00,,,0.00,WUHU215HW,2013-02-07 00:00:00,
2013-02-06 18:02:00,51.0,37.2,30.04,SSW,203,0.0,0.0,59,0.00,,,0.00,WUHU215HW,2013-02-07 00:02:00,
2013-02-06 18:05:00,51.0,37.3,30.04,SSW,203,0.0,0.0,59,0.00,,,0.00,WUHU215HW,2013-02-07 00:05:00,
2013-02-06 18:07:00,51.1,37.3,30.04,SSW,203,0.0,0.0,59,0.00,,,0.00,WUHU215HW,2013-02-07 00:07:00,
2013-02-06 18:09:00,51.1,37.4,30.04,SSW,203,0.0,0.0,59,0.00,,,0.00,WUHU215HW,2013-02-07 00:09:00,
2013-02-06 18:10:00,51.2,37.4,30.04,SSW,203,0.0,0.0,59,0.00,,,0.00,WUHU215HW,2013-02-07 00:10:00,
2013-02-06 18:14:00,51.0,37.2,30.04,SSW,203,0.0,0.0,59,0.00,,,0.00,WUHU215HW,2013-02-07 00:14:00,
2013-02-06 18:15:00,50.8,37.5,30.04,SSW,203,0.0,0.0,60,0.00,,,0.00,WUHU215HW,2013-02-07 00:15:00,
2013-02-06 18:19:00,50.7,37.4,30.04,SSW,203,0.0,0.0,60,0.00,,,0.00,WUHU215HW,2013-02-07 00:19:00,
2013-02-06 18:20:00,50.6,37.3,30.04,SSW,203,0.0,0.0,60,0.00,,,0.00,WUHU215HW,2013-02-07 00:20:00,
2013-02-06 18:23:00,50.7,37.4,30.04,SSW,203,0.0,0.0,60,0.00,,,0.00,WUHU215HW,2013-02-07 00:23:00,
2013-02-06 18:24:00,50.6,37.3,30.04,SSW,203,0.0,0.0,60,0.00,,,0.00,WUHU215HW,2013-02-07 00:24:00,
2013-02-06 18:25:00,50.7,37.4,30.04,SSW,203,0.0,0.0,60,0.00,,,0.00,WUHU215HW,2013-02-07 00:25:00,
2013-02-06 18:29:00,50.6,37.8,30.04,SSW,203,0.0,0.0,61,0.00,,,0.00,WUHU215HW,2013-02-07 00:29:00,
2013-02-06 18:30:00,50.5,37.6,30.04,SSW,203,0.0,0.0,61,0.00,,,0.00,WUHU215HW,2013-02-07 00:30:00,
2013-02-06 18:32:00,50.5,37.7,30.04,SSW,203,0.0,0.0,61,0.00,,,0.00,WUHU215HW,2013-02-07 00:32:00,
2013-02-06 18:37:00,50.6,38.1,30.04,SSW,203,0.0,0.0,62,0.00,,,0.00,WUHU215HW,2013-02-07 00:37:00,
2013-02-06 18:42:00,50.6,38.2,30.04,SSW,203,0.0,0.0,62,0.00,,,0.00,WUHU215HW,2013-02-07 00:42:00,
2013-02-06 18:44:00,50.6,38.2,30.04,SSW,203,0.0,0.0,62,0.00,,,0.00,WUHU215HW,2013-02-07 00:44:00,
2013-02-06 18:47:00,50.5,38.1,30.04,SSW,203,0.0,0.0,62,0.00,,,0.00,WUHU215HW,2013-02-07 00:47:00,
2013-02-06 18:52:00,50.8,38.7,30.04,SSW,203,0.0,0.0,63,0.00,,,0.00,WUHU215HW,2013-02-07 00:52:00,
2013-02-06 18:53:00,50.4,38.4,30.04,SSW,203,0.0,0.0,63,0.00,,,0.00,WUHU215HW,2013-02-07 00:53:00,
2013-02-06 18:59:00,50.5,38.5,30.04,SSW,203,0.0,0.0,63,0.00,,,0.00,WUHU215HW,2013-02-07 00:59:00,
2013-02-06 19:00:00,50.6,38.6,30.04,SSW,203,0.0,0.0,63,0.00,,,0.00,WUHU215HW,2013-02-07 01:00:00,
2013-02-06 19:01:00,50.6,39.0,30.04,SSW,203,0.0,0.0,64,0.00,,,0.00,WUHU215HW,2013-02-07 01:01:00,
2013-02-06 19:03:00,50.2,38.6,30.04,SSW,203,0.0,0.0,64,0.00,,,0.00,WUHU215HW,2013-02-07 01:03:00,
2013-02-06 19:05:00,50.2,38.6,30.04,SSW,203,0.0,0.0,64,0.00,,,0.00,WUHU215HW,2013-02-07 01:05:00,
2013-02-06 19:07:00,50.3,39.1,30.04,SSW,203,0.0,0.0,65,0.00,,,0.00,WUHU215HW,2013-02-07 01:07:00,
2013-02-06 19:08:00,50.3,38.5,30.04,SSW,203,0.0,0.0,65,0.00,,,0.00,WUHU215HW,2013-02-07 01:08:00,
2013-02-06 19:11:00,49.8,38.4,30.04,SSW,203,0.0,0.0,65,0.00,,,0.00,WUHU215HW,2013-02-07 01:11:00,
2013-02-06 19:12:00,49.8,38.4,30.04,SSW,203,0.0,0.0,65,0.00,,,0.00,WUHU215HW,2013-02-07 01:12:00,
2013-02-06 19:13:00,49.6,38.3,30.04,SSW,203,0.0,0.0,65,0.00,,,0.00,WUHU215HW,2013-02-07 01:13:00,
2013-02-06 19:14:00,49.6,38.3,30.04,SSW,203,0.0,0.0,65,0.00,,,0.00,WUHU215HW,2013-02-07 01:14:00,
2013-02-06 19:17:00,49.2,38.3,30.04,SSW,203,0.0,0.0,66,0.00,,,0.00,WUHU215HW,2013-02-07 01:17:00,
2013-02-06 19:18:00,49.2,38.3,30.04,SSW,203,0.0,0.0,66,0.00,,,0.00,WUHU215HW,2013-02-07 01:18:00,
2013-02-06 19:21:00,48.7,38.2,30.04,SSW,203,0.0,0.0,67,0.00,,,0.00,WUHU215HW,2013-02-07 01:21:00,
2013-02-06 19:23:00,48.7,38.2,30.04,SSW,203,0.0,0.0,67,0.00,,,0.00,WUHU215HW,2013-02-07 01:23:00,
2013-02-06 19:26:00,48.5,38.0,30.04,SSW,203,0.0,0.0,67,0.00,,,0.00,WUHU215HW,2013-02-07 01:26:00,
2013-02-06 19:27:00,48.5,38.0,30.04,SSW,203,0.0,0.0,67,0.00,,,0.00,WUHU215HW,2013-02-07 01:27:00,
2013-02-06 19:31:00,48.3,38.0,30.04,SSW,203,0.0,0.0,68,0.00,,,0.00,WUHU215HW,2013-02-07 01:31:00,
2013-02-06 19:32:00,48.3,38.0,30.04,SSW,203,0.0,0.0,68,0.00,,,0.00,WUHU215HW,2013-02-07 01:32:00,
2013-02-06 19:33:00,48.3,38.0,30.04,SSW,203,0.0,0.0,68,0.00,,,0.00,WUHU215HW,2013-02-07 01:33:00,
2013-02-06 19:36:00,48.2,38.4,30.04,SSW,203,0.0,0.0,69,0.00,,,0.00,WUHU215HW,2013-02-07 01:36:00,
2013-02-06 19:38:00,48.2,38.4,30.04,SSW,203,0.0,0.0,69,0.00,,,0.00,WUHU215HW,2013-02-07 01:38:00,
2013-02-06 19:41:00,48.0,38.2,30.04,SSW,203,0.0,0.0,69,0.00,,,0.00,WUHU215HW,2013-02-07 01:41:00,
2013-02-06 19:45:00,48.0,38.6,30.04,SSW,203,0.0,0.0,70,0.00,,,0.00,WUHU215HW,2013-02-07 01:45:00,
2013-02-06 19:46:00,48.0,38.6,30.04,SSW,203,0.0,0.0,70,0.00,,,0.00,WUHU215HW,2013-02-07 01:46:00,
2013-02-06 19:50:00,47.8,38.5,30.04,SSW,203,0.0,0.0,70,0.00,,,0.00,WUHU215HW,2013-02-07 01:50:00,
2013-02-06 19:51:00,47.8,38.5,30.04,SSW,203,0.0,0.0,70,0.00,,,0.00,WUHU215HW,2013-02-07 01:51:00,
2013-02-06 19:55:00,47.6,38.5,30.04,SSW,203,0.0,0.0,70,0.00,,,0.00,WUHU215HW,2013-02-07 01:55:00,
2013-02-06 19:56:00,47.6,38.3,30.04,SSW,203,0.0,0.0,70,0.00,,,0.00,WUHU215HW,2013-02-07 01:56:00,
2013-02-06 19:58:00,47.3,38.3,30.04,SSW,203,0.0,0.0,71,0.00,,,0.00,WUHU215HW,2013-02-07 01:58:00,
2013-02-06 20:01:00,47.3,38.3,30.04,SSW,203,0.0,0.0,71,0.00,,,0.00,WUHU215HW,2013-02-07 02:01:00,
2013-02-06 20:03:00,47.3,38.7,30.04,SSW,203,0.0,0.0,72,0.00,,,0.00,WUHU215HW,2013-02-07 02:03:00,
2013-02-06 20:04:00,47.3,38.7,30.04,SSW,203,0.0,0.0,72,0.00,,,0.00,WUHU215HW,2013-02-07 02:04:00,
2013-02-06 20:07:00,47.1,38.5,30.04,SSW,203,0.0,0.0,72,0.00,,,0.00,WUHU215HW,2013-02-07 02:07:00,
2013-02-06 20:11:00,46.9,38.3,30.04,SSW,203,0.0,0.0,72,0.00,,,0.00,WUHU215HW,2013-02-07 02:11:00,
2013-02-06 20:15:00,46.5,38.0,30.04,SSW,203,0.0,0.0,72,0.00,,,0.00,WUHU215HW,2013-02-07 02:15:00,
2013-02-06 20:17:00,46.5,38.0,30.04,SSW,203,0.0,0.0,72,0.00,,,0.00,WUHU215HW,2013-02-07 02:17:00,
2013-02-06 20:21:00,46.4,37.9,30.04,SSW,203,0.0,0.0,72,0.00,,,0.00,WUHU215HW,2013-02-07 02:21:00,
2013-02-06 20:22:00,46.4,37.9,30.04,SSW,203,0.0,0.0,72,0.00,,,0.00,WUHU215HW,2013-02-07 02:22:00,
2013-02-06 20:24:00,46.2,37.7,30.04,SSW,203,0.0,0.0,72,0.00,,,0.00,WUHU215HW,2013-02-07 02:24:00,
2013-02-06 20:27:00,46.2,37.7,30.04,SSW,203,0.0,0.0,72,0.00,,,0.00,WUHU215HW,2013-02-07 02:27:00,
2013-02-06 20:29:00,46.2,38.0,30.04,SSW,203,0.0,0.0,73,0.00,,,0.00,WUHU215HW,2013-02-07 02:29:00,
2013-02-06 20:30:00,46.4,38.2,30.04,SSW,203,0.0,0.0,73,0.00,,,0.00,WUHU215HW,2013-02-07 02:30:00,
2013-02-06 20:33:00,46.5,38.4,30.04,SSW,203,0.0,0.0,73,0.00,,,0.00,WUHU215HW,2013-02-07 02:33:00,
2013-02-06 20:34:00,46.5,38.4,30.04,SSW,203,0.0,0.0,73,0.00,,,0.00,WUHU215HW,2013-02-07 02:34:00,
2013-02-06 20:36:00,46.5,38.4,30.04,SSW,203,0.0,0.0,73,0.00,,,0.00,WUHU215HW,2013-02-07 02:36:00,
2013-02-06 20:38:00,46.5,38.4,30.04,SSW,203,0.0,0.0,73,0.00,,,0.00,WUHU215HW,2013-02-07 02:38:00,
2013-02-06 20:42:00,46.5,38.4,30.04,SSW,203,0.0,0.0,73,0.00,,,0.00,WUHU215HW,2013-02-07 02:42:00,
2013-02-06 20:43:00,46.5,38.4,30.04,SSW,203,0.0,0.0,73,0.00,,,0.00,WUHU215HW,2013-02-07 02:43:00,
2013-02-06 20:45:00,46.5,38.4,30.04,SSW,203,0.0,0.0,73,0.00,,,0.00,WUHU215HW,2013-02-07 02:45:00,
2013-02-06 20:48:00,46.5,38.0,30.04,SSW,203,0.0,0.0,72,0.00,,,0.00,WUHU215HW,2013-02-07 02:48:00,
2013-02-06 20:50:00,46.5,38.0,30.04,SSW,203,0.0,0.0,72,0.00,,,0.00,WUHU215HW,2013-02-07 02:50:00,
2013-02-06 20:51:00,46.5,38.0,30.04,SSW,203,0.0,0.0,72,0.00,,,0.00,WUHU215HW,2013-02-07 02:51:00,
2013-02-06 20:55:00,46.0,38.0,30.04,SSW,203,0.0,0.0,72,0.00,,,0.00,WUHU215HW,2013-02-07 02:55:00,
2013-02-06 20:56:00,46.0,38.0,30.04,SSW,203,0.0,0.0,72,0.00,,,0.00,WUHU215HW,2013-02-07 02:56:00,
2013-02-06 20:57:00,46.0,38.0,30.04,SSW,203,0.0,0.0,72,0.00,,,0.00,WUHU215HW,2013-02-07 02:57:00,
2013-02-06 21:01:00,45.6,38.0,30.04,SSW,203,0.0,0.0,73,0.00,,,0.00,WUHU215HW,2013-02-07 03:01:00,
2013-02-06 21:02:00,45.6,38.0,30.04,SSW,203,0.0,0.0,73,0.00,,,0.00,WUHU215HW,2013-02-07 03:02:00,
2013-02-06 21:06:00,45.1,38.0,30.04,SSW,203,0.0,0.0,73,0.00,,,0.00,WUHU215HW,2013-02-07 03:06:00,
2013-02-06 21:08:00,45.1,38.0,30.04,SSW,203,0.0,0.0,73,0.00,,,0.00,WUHU215HW,2013-02-07 03:08:00,
2013-02-06 21:09:00,45.1,38.0,30.04,SSW,203,0.0,0.0,73,0.00,,,0.00,WUHU215HW,2013-02-07 03:09:00,
2013-02-06 21:14:00,44.7,38.0,30.04,SSW,203,0.0,0.0,73,0.00,,,0.00,WUHU215HW,2013-02-07 03:14:00,
2013-02-06 21:16:00,44.7,38.0,30.04,SSW,203,0.0,0.0,74,0.00,,,0.00,WUHU215HW,2013-02-07 03:16:00,
2013-02-06 21:17:00,44.4,38.0,30.04,SSW,203,0.0,0.0,74,0.00,,,0.00,WUHU215HW,2013-02-07 03:17:00,
2013-02-06 21:19:00,44.4,36.6,30.04,SSW,203,0.0,0.0,74,0.00,,,0.00,WUHU215HW,2013-02-07 03:19:00,
2013-02-06 21:22:00,44.4,36.6,30.04,SSW,203,0.0,0.0,74,0.00,,,0.00,WUHU215HW,2013-02-07 03:22:00,
2013-02-06 21:24:00,44.4,36.6,30.04,WSW,248,0.0,0.0,75,0.00,,,0.00,WUHU215HW,2013-02-07 03:24:00,
2013-02-06 21:25:00,44.4,36.6,30.04,WSW,248,0.0,0.0,75,0.00,,,0.00,WUHU215HW,2013-02-07 03:25:00,
2013-02-06 21:28:00,44.4,36.9,30.04,WSW,248,0.0,0.0,75,0.00,,,0.00,WUHU215HW,2013-02-07 03:28:00,
2013-02-06 21:30:00,44.4,36.9,30.04,WSW,248,0.0,0.0,75,0.00,,,0.00,WUHU215HW,2013-02-07 03:30:00,
2013-02-06 21:31:00,44.4,36.9,30.04,WSW,248,0.0,0.0,75,0.00,,,0.00,WUHU215HW,2013-02-07 03:31:00,
2013-02-06 21:36:00,44.4,36.9,30.04,WSW,248,0.0,0.0,75,0.00,,,0.00,WUHU215HW,2013-02-07 03:36:00,
2013-02-06 21:37:00,44.2,36.7,30.04,WSW,248,0.0,0.0,75,0.00,,,0.00,WUHU215HW,2013-02-07 03:37:00,
2013-02-06 21:40:00,44.2,36.7,30.04,WSW,248,0.0,0.0,75,0.00,,,0.00,WUHU215HW,2013-02-07 03:40:00,
2013-02-06 21:42:00,43.8,36.4,30.04,WSW,248,0.0,0.0,75,0.00,,,0.00,WUHU215HW,2013-02-07 03:42:00,
2013-02-06 21:43:00,43.7,36.2,30.04,WSW,248,0.0,0.0,75,0.00,,,0.00,WUHU215HW,2013-02-07 03:43:00,
2013-02-06 21:47:00,43.5,36.1,30.04,WSW,248,0.0,0.0,75,0.00,,,0.00,WUHU215HW,2013-02-07 03:47:00,
2013-02-06 21:50:00,43.5,36.1,30.04,WSW,248,0.0,0.0,75,0.00,,,0.00,WUHU215HW,2013-02-07 03:50:00,
2013-02-06 21:51:00,43.3,35.9,30.04,WSW,248,0.0,0.0,75,0.00,,,0.00,WUHU215HW,2013-02-07 03:51:00,
2013-02-06 21:55:00,43.3,35.9,30.04,WSW,248,0.0,0.0,75,0.00,,,0.00,WUHU215HW,2013-02-07 03:55:00,
2013-02-06 21:56:00,42.9,35.9,30.04,WSW,248,0.0,0.0,76,0.00,,,0.00,WUHU215HW,2013-02-07 03:56:00,
2013-02-06 21:57:00,42.9,35.9,30.04,WSW,248,0.0,0.0,76,0.00,,,0.00,WUHU215HW,2013-02-07 03:57:00,
2013-02-06 22:01:00,42.6,35.9,30.04,WSW,248,0.0,0.0,76,0.00,,,0.00,WUHU215HW,2013-02-07 04:01:00,
2013-02-06 22:02:00,42.6,35.5,30.04,WSW,248,0.0,0.0,76,0.00,,,0.00,WUHU215HW,2013-02-07 04:02:00,
2013-02-06 22:04:00,42.6,35.8,30.04,WSW,248,0.0,0.0,77,0.00,,,0.00,WUHU215HW,2013-02-07 04:04:00,
2013-02-06 22:08:00,42.6,35.8,30.04,WSW,248,0.0,0.0,77,0.00,,,0.00,WUHU215HW,2013-02-07 04:08:00,
2013-02-06 22:10:00,42.6,35.8,30.04,WSW,248,0.0,0.0,77,0.00,,,0.00,WUHU215HW,2013-02-07 04:10:00,
2013-02-06 22:13:00,42.4,35.7,30.04,WSW,248,0.0,0.0,77,0.00,,,0.00,WUHU215HW,2013-02-07 04:13:00,
2013-02-06 22:16:00,42.2,35.5,30.04,WSW,248,0.0,0.0,77,0.00,,,0.00,WUHU215HW,2013-02-07 04:16:00,
2013-02-06 22:17:00,42.0,35.3,30.04,WSW,248,0.0,0.0,77,0.00,,,0.00,WUHU215HW,2013-02-07 04:17:00,
2013-02-06 22:18:00,42.0,35.3,30.04,WSW,248,0.0,0.0,77,0.00,,,0.00,WUHU215HW,2013-02-07 04:18:00,
2013-02-06 22:23:00,41.7,35.3,30.04,WSW,248,0.0,0.0,77,0.00,,,0.00,WUHU215HW,2013-02-07 04:23:00,
2013-02-06 22:24:00,41.7,35.3,30.04,WSW,248,0.0,0.0,77,0.00,,,0.00,WUHU215HW,2013-02-07 04:24:00,
2013-02-06 22:27:00,41.5,35.3,30.04,WSW,248,0.0,0.0,77,0.00,,,0.00,WUHU215HW,2013-02-07 04:27:00,
2013-02-06 22:28:00,41.5,34.8,30.04,WSW,248,0.0,0.0,77,0.00,,,0.00,WUHU215HW,2013-02-07 04:28:00,
2013-02-06 22:31:00,41.3,34.9,30.04,WSW,248,0.0,0.0,78,0.00,,,0.00,WUHU215HW,2013-02-07 04:31:00,
2013-02-06 22:32:00,41.3,34.9,30.04,WSW,248,0.0,0.0,78,0.00,,,0.00,WUHU215HW,2013-02-07 04:32:00,
2013-02-06 22:34:00,41.1,34.7,30.04,WSW,248,0.0,0.0,78,0.00,,,0.00,WUHU215HW,2013-02-07 04:34:00,
2013-02-06 22:36:00,41.1,34.7,30.04,WSW,248,0.0,0.0,78,0.00,,,0.00,WUHU215HW,2013-02-07 04:36:00,
2013-02-06 22:38:00,41.0,34.5,30.04,WSW,248,0.0,0.0,78,0.00,,,0.00,WUHU215HW,2013-02-07 04:38:00,
2013-02-06 22:40:00,41.0,34.5,30.04,WSW,248,0.0,0.0,78,0.00,,,0.00,WUHU215HW,2013-02-07 04:40:00,
2013-02-06 22:41:00,41.0,34.5,30.04,WSW,248,0.0,0.0,78,0.00,,,0.00,WUHU215HW,2013-02-07 04:41:00,
2013-02-06 22:42:00,41.0,34.5,30.04,WSW,248,0.0,0.0,78,0.00,,,0.00,WUHU215HW,2013-02-07 04:42:00,
2013-02-06 22:43:00,41.0,34.9,30.04,WSW,248,0.0,0.0,79,0.00,,,0.00,WUHU215HW,2013-02-07 04:43:00,
2013-02-06 22:48:00,41.1,34.9,30.04,WSW,248,0.0,0.0,80,0.00,,,0.00,WUHU215HW,2013-02-07 04:48:00,
2013-02-06 22:49:00,41.1,34.9,30.04,WSW,248,0.0,0.0,80,0.00,,,0.00,WUHU215HW,2013-02-07 04:49:00,
2013-02-06 22:54:00,41.1,35.4,30.04,WSW,248,0.0,0.0,80,0.00,,,0.00,WUHU215HW,2013-02-07 04:54:00,
2013-02-06 22:55:00,41.3,35.6,30.04,WSW,248,0.0,0.0,80,0.00,,,0.00,WUHU215HW,2013-02-07 04:55:00,
2013-02-06 22:57:00,41.3,35.6,30.04,West,270,0.0,0.0,80,0.00,,,0.00,WUHU215HW,2013-02-07 04:57:00,
2013-02-06 23:00:00,41.5,35.7,30.04,West,270,0.0,0.0,80,0.00,,,0.00,WUHU215HW,2013-02-07 05:00:00,
2013-02-06 23:01:00,41.5,35.7,30.04,West,270,0.0,0.0,80,0.00,,,0.00,WUHU215HW,2013-02-07 05:01:00,
2013-02-06 23:02:00,41.5,36.0,30.04,West,270,0.0,0.0,81,0.00,,,0.00,WUHU215HW,2013-02-07 05:02:00,
2013-02-06 23:03:00,41.5,36.0,30.04,West,270,0.0,0.0,81,0.00,,,0.00,WUHU215HW,2013-02-07 05:03:00,
2013-02-06 23:05:00,41.7,36.2,30.04,West,270,0.0,0.0,81,0.00,,,0.00,WUHU215HW,2013-02-07 05:05:00,
2013-02-06 23:09:00,41.9,36.4,30.04,West,270,0.0,0.0,81,0.00,,,0.00,WUHU215HW,2013-02-07 05:09:00,
2013-02-06 23:12:00,41.9,36.4,30.04,West,270,0.0,0.0,81,0.00,,,0.00,WUHU215HW,2013-02-07 05:12:00,
2013-02-06 23:13:00,41.9,36.1,30.04,West,270,0.0,0.0,80,0.00,,,0.00,WUHU215HW,2013-02-07 05:13:00,
2013-02-06 23:14:00,41.9,36.1,30.04,West,270,0.0,0.0,80,0.00,,,0.00,WUHU215HW,2013-02-07 05:14:00,
2013-02-06 23:16:00,41.9,36.1,30.04,West,270,0.0,0.0,80,0.00,,,0.00,WUHU215HW,2013-02-07 05:16:00,
2013-02-06 23:17:00,41.9,36.1,30.04,West,270,0.0,0.0,80,0.00,,,0.00,WUHU215HW,2013-02-07 05:17:00,
2013-02-06 23:19:00,41.9,36.1,30.04,West,270,0.0,0.0,80,0.00,,,0.00,WUHU215HW,2013-02-07 05:19:00,
2013-02-06 23:21:00,41.7,36.1,30.04,West,270,0.0,0.0,80,0.00,,,0.00,WUHU215HW,2013-02-07 05:21:00,
2013-02-06 23:26:00,41.5,36.1,30.04,West,270,0.0,0.0,80,0.00,,,0.00,WUHU215HW,2013-02-07 05:26:00,
2013-02-06 23:27:00,41.5,36.1,30.04,West,270,0.0,0.0,80,0.00,,,0.00,WUHU215HW,2013-02-07 05:27:00,
2013-02-06 23:29:00,41.5,35.7,30.04,West,270,0.0,0.0,80,0.00,,,0.00,WUHU215HW,2013-02-07 05:29:00,
2013-02-06 23:31:00,41.5,35.7,30.04,West,270,0.0,0.0,80,0.00,,,0.00,WUHU215HW,2013-02-07 05:31:00,
2013-02-06 23:33:00,41.7,35.9,30.04,West,270,0.0,0.0,80,0.00,,,0.00,WUHU215HW,2013-02-07 05:33:00,
2013-02-06 23:36:00,41.7,35.9,30.04,West,270,0.0,0.0,80,0.00,,,0.00,WUHU215HW,2013-02-07 05:36:00,
2013-02-06 23:38:00,41.7,35.9,30.04,West,270,0.0,0.0,80,0.00,,,0.00,WUHU215HW,2013-02-07 05:38:00,
2013-02-06 23:41:00,41.9,36.1,30.04,West,270,0.0,0.0,80,0.00,,,0.00,WUHU215HW,2013-02-07 05:41:00,
2013-02-06 23:44:00,41.9,36.1,30.04,West,270,0.0,0.0,80,0.00,,,0.00,WUHU215HW,2013-02-07 05:44:00,
2013-02-06 23:46:00,41.9,36.1,30.04,West,270,0.0,0.0,80,0.00,,,0.00,WUHU215HW,2013-02-07 05:46:00,
2013-02-06 23:49:00,42.0,35.9,30.04,West,270,0.0,0.0,79,0.00,,,0.00,WUHU215HW,2013-02-07 05:49:00,
2013-02-06 23:52:00,42.0,35.9,30.04,West,270,0.0,0.0,79,0.00,,,0.00,WUHU215HW,2013-02-07 05:52:00,
2013-02-06 23:55:00,42.0,35.9,30.04,West,270,0.0,0.0,79,0.00,,,0.00,WUHU215HW,2013-02-07 05:55:00,